Observation data for Big Lake on 08/14/2019      Previous  Date  Next       Current Mesonet Observations  Soil Data  Daily Summary Page  Observations in Plain Language
KBI1 140500Z 26007KT 26/18 A3005 RMK A01 T02580178  RH  061%=      5-min Rain = 0
KBI1 140501Z 25006KT 26/18 A3005 RMK A01 T02590178  RH  061%=      5-min Rain = 0
KBI1 140502Z 26005KT 26/18 A3005 RMK A01 T02580178  RH  061%=      5-min Rain = 0
KBI1 140503Z 26005KT 26/18 A3005 RMK A01 T02590179  RH  061%=      5-min Rain = 0
KBI1 140504Z 26007KT 26/18 A3005 RMK A01 T02590179  RH  061%=      5-min Rain = 0
KBI1 140505Z 26007KT 26/18 A3005 RMK A01 T02590179  RH  061%=      5-min Rain = 0
KBI1 140506Z 26008KT 26/18 A3005 RMK A01 T02590179  RH  061%=      5-min Rain = 0
KBI1 140507Z 26008KT 26/18 A3005 RMK A01 T02590179  RH  061%=      5-min Rain = 0
KBI1 140508Z 26009KT 26/18 A3005 RMK A01 T02600179  RH  061%=      5-min Rain = 0
KBI1 140509Z 27008KT 26/18 A3005 RMK A01 T02610179  RH  061%=      5-min Rain = 0
KBI1 140510Z 26008KT 26/18 A3005 RMK A01 T02610179  RH  060%=      5-min Rain = 0
KBI1 140525Z 28007KT 27/18 A3005 RMK A01 T02700176  RH  056%=      5-min Rain = 0
KBI1 140526Z 28007KT 27/18 A3005 RMK A01 T02700176  RH  056%=      5-min Rain = 0
KBI1 140527Z 28007KT 27/18 A3005 RMK A01 T02690175  RH  056%=      5-min Rain = 0
KBI1 140528Z 28006KT 27/18 A3005 RMK A01 T02700176  RH  056%=      5-min Rain = 0
KBI1 140529Z 28007KT 27/18 A3005 RMK A01 T02700175  RH  056%=      5-min Rain = 0
KBI1 140530Z 28006KT 27/18 A3005 RMK A01 T02700175  RH  056%=      5-min Rain = 0
KBI1 140531Z 27006KT 27/18 A3005 RMK A01 T02700175  RH  056%=      5-min Rain = 0
KBI1 140532Z 27007KT 27/18 A3005 RMK A01 T02700175  RH  056%=      5-min Rain = 0
KBI1 140533Z 27006KT 27/18 A3005 RMK A01 T02710175  RH  056%=      5-min Rain = 0
KBI1 140534Z 28005KT 27/18 A3005 RMK A01 T02710175  RH  056%=      5-min Rain = 0
KBI1 140535Z 28006KT 27/18 A3004 RMK A01 T02700175  RH  056%=      5-min Rain = 0
KBI1 140536Z 28005KT 27/18 A3004 RMK A01 T02710175  RH  056%=      5-min Rain = 0
KBI1 140537Z 29006KT 27/18 A3004 RMK A01 T02710175  RH  056%=      5-min Rain = 0
KBI1 140538Z 29006KT 27/18 A3004 RMK A01 T02710175  RH  056%=      5-min Rain = 0
KBI1 140539Z 29006KT 27/17 A3004 RMK A01 T02710174  RH  055%=      5-min Rain = 0
KBI1 140540Z 28006KT 27/17 A3004 RMK A01 T02710174  RH  055%=      5-min Rain = 0
KBI1 140541Z 29006KT 27/17 A3004 RMK A01 T02710174  RH  055%=      5-min Rain = 0
KBI1 140542Z 28005KT 27/17 A3005 RMK A01 T02710174  RH  055%=      5-min Rain = 0
KBI1 140543Z 28005KT 27/17 A3005 RMK A01 T02710174  RH  055%=      5-min Rain = 0
KBI1 140544Z 27005KT 27/17 A3005 RMK A01 T02710174  RH  055%=      5-min Rain = 0
KBI1 140545Z 26004KT 27/17 A3005 RMK A01 T02700174  RH  055%=      5-min Rain = 0
KBI1 140546Z 26003KT 27/17 A3005 RMK A01 T02710174  RH  055%=      5-min Rain = 0
KBI1 140547Z 25002KT 27/17 A3005 RMK A01 T02710174  RH  055%=      5-min Rain = 0
KBI1 140548Z 26001KT 27/17 A3005 RMK A01 T02710174  RH  055%=      5-min Rain = 0
KBI1 140549Z 26001KT 27/17 A3005 RMK A01 T02700174  RH  055%=      5-min Rain = 0
KBI1 140550Z 00000KT 27/17 A3005 RMK A01 T02700174  RH  056%=      5-min Rain = 0
KBI1 140551Z 26000KT 27/17 A3005 RMK A01 T02690174  RH  056%=      5-min Rain = 0
KBI1 140552Z 27001KT 27/17 A3005 RMK A01 T02690174  RH  056%=      5-min Rain = 0
KBI1 140553Z 02002KT 27/17 A3005 RMK A01 T02690174  RH  056%=      5-min Rain = 0
KBI1 140554Z 02004KT 27/17 A3005 RMK A01 T02690174  RH  056%=      5-min Rain = 0
KBI1 140555Z 02004KT 27/17 A3005 RMK A01 T02680174  RH  056%=      5-min Rain = 0
KBI1 140556Z 03005KT 27/17 A3005 RMK A01 T02680174  RH  056%=      5-min Rain = 0
KBI1 140557Z 03004KT 27/17 A3006 RMK A01 T02680173  RH  056%=      5-min Rain = 0
KBI1 140558Z 04003KT 27/17 A3006 RMK A01 T02690174  RH  056%=      5-min Rain = 0
KBI1 140559Z 04004KT 27/17 A3006 RMK A01 T02690174  RH  056%=      5-min Rain = 0
KBI1 140600Z 04004KT 27/17 A3006 RMK A01 T02690174  RH  056%=      5-min Rain = 0
KBI1 140601Z 06003KT 27/17 A3006 RMK A01 T02700174  RH  056%=      5-min Rain = 0
KBI1 140602Z 07002KT 27/17 A3006 RMK A01 T02700174  RH  056%=      5-min Rain = 0
KBI1 140603Z 05002KT 27/17 A3006 RMK A01 T02700174  RH  055%=      5-min Rain = 0
KBI1 140604Z 07000KT 27/17 A3006 RMK A01 T02700173  RH  055%=      5-min Rain = 0
KBI1 140605Z 07000KT 27/17 A3006 RMK A01 T02710172  RH  055%=      5-min Rain = 0
KBI1 140606Z 29002KT 27/17 A3006 RMK A01 T02720172  RH  055%=      5-min Rain = 0
KBI1 140607Z 26003KT 27/17 A3005 RMK A01 T02730172  RH  054%=      5-min Rain = 0
KBI1 140608Z 27004KT 27/17 A3005 RMK A01 T02740171  RH  053%=      5-min Rain = 0
KBI1 140609Z 27006KT 28/17 A3005 RMK A01 T02750171  RH  053%=      5-min Rain = 0
KBI1 140610Z 25007KT 28/17 A3005 RMK A01 T02760171  RH  053%=      5-min Rain = 0
KBI1 140611Z 26008KT 28/17 A3005 RMK A01 T02760170  RH  052%=      5-min Rain = 0
KBI1 140612Z 25007KT 28/17 A3006 RMK A01 T02780170  RH  052%=      5-min Rain = 0
KBI1 140613Z 25007KT 28/17 A3006 RMK A01 T02790170  RH  052%=      5-min Rain = 0
KBI1 140614Z 25007KT 28/17 A3006 RMK A01 T02790171  RH  052%=      5-min Rain = 0
KBI1 140615Z 24006KT 28/17 A3006 RMK A01 T02790171  RH  052%=      5-min Rain = 0
KBI1 140616Z 25007KT 28/17 A3006 RMK A01 T02790171  RH  052%=      5-min Rain = 0
KBI1 140617Z 25005KT 28/17 A3006 RMK A01 T02780171  RH  052%=      5-min Rain = 0
KBI1 140618Z 25004KT 28/17 A3006 RMK A01 T02780171  RH  052%=      5-min Rain = 0
KBI1 140619Z 26004KT 28/17 A3006 RMK A01 T02770172  RH  053%=      5-min Rain = 0
KBI1 140620Z 27003KT 28/17 A3006 RMK A01 T02750172  RH  053%=      5-min Rain = 0
KBI1 140621Z 28002KT 28/17 A3006 RMK A01 T02750172  RH  053%=      5-min Rain = 0
KBI1 140622Z 30002KT 27/17 A3006 RMK A01 T02740172  RH  054%=      5-min Rain = 0
KBI1 140623Z 31002KT 27/17 A3006 RMK A01 T02740171  RH  054%=      5-min Rain = 0
KBI1 140624Z 32003KT 27/17 A3006 RMK A01 T02740171  RH  054%=      5-min Rain = 0
KBI1 140625Z 34004KT 27/17 A3006 RMK A01 T02730172  RH  054%=      5-min Rain = 0
KBI1 140626Z 35004KT 27/17 A3006 RMK A01 T02720171  RH  054%=      5-min Rain = 0
KBI1 140627Z 34004KT 27/17 A3006 RMK A01 T02720172  RH  054%=      5-min Rain = 0
KBI1 140628Z 35003KT 27/17 A3006 RMK A01 T02710171  RH  054%=      5-min Rain = 0
KBI1 140629Z 36003KT 27/17 A3006 RMK A01 T02710171  RH  054%=      5-min Rain = 0
KBI1 140630Z 35003KT 27/17 A3006 RMK A01 T02710171  RH  054%=      5-min Rain = 0
KBI1 140631Z 00003KT 27/17 A3006 RMK A01 T02710171  RH  054%=      5-min Rain = 0
KBI1 140632Z 36002KT 27/17 A3006 RMK A01 T02710171  RH  054%=      5-min Rain = 0
KBI1 140633Z 35002KT 27/17 A3006 RMK A01 T02700170  RH  054%=      5-min Rain = 0
KBI1 140634Z 34002KT 27/17 A3006 RMK A01 T02710171  RH  054%=      5-min Rain = 0
KBI1 140635Z 34002KT 27/17 A3006 RMK A01 T02710171  RH  054%=      5-min Rain = 0
KBI1 140636Z 31003KT 27/17 A3006 RMK A01 T02710170  RH  054%=      5-min Rain = 0
KBI1 140637Z 30003KT 27/17 A3006 RMK A01 T02720170  RH  054%=      5-min Rain = 0
KBI1 140638Z 30002KT 27/17 A3006 RMK A01 T02720170  RH  054%=      5-min Rain = 0
KBI1 140639Z 30002KT 27/17 A3006 RMK A01 T02730171  RH  054%=      5-min Rain = 0
KBI1 140640Z 29002KT 27/17 A3006 RMK A01 T02730171  RH  054%=      5-min Rain = 0
KBI1 140641Z 28003KT 27/17 A3006 RMK A01 T02720171  RH  054%=      5-min Rain = 0
KBI1 140642Z 29002KT 27/17 A3006 RMK A01 T02720170  RH  054%=      5-min Rain = 0
KBI1 140643Z 29002KT 27/17 A3006 RMK A01 T02720170  RH  054%=      5-min Rain = 0
KBI1 140644Z 27003KT 27/17 A3006 RMK A01 T02730170  RH  054%=      5-min Rain = 0
KBI1 140645Z 27004KT 27/17 A3006 RMK A01 T02730170  RH  054%=      5-min Rain = 0
KBI1 140646Z 28003KT 27/17 A3006 RMK A01 T02730170  RH  054%=      5-min Rain = 0
KBI1 140647Z 29004KT 27/17 A3006 RMK A01 T02720170  RH  054%=      5-min Rain = 0
KBI1 140648Z 29004KT 27/17 A3006 RMK A01 T02710171  RH  054%=      5-min Rain = 0
KBI1 140649Z 28004KT 27/17 A3006 RMK A01 T02700170  RH  054%=      5-min Rain = 0
KBI1 140650Z 29004KT 27/17 A3006 RMK A01 T02700170  RH  055%=      5-min Rain = 0
KBI1 140651Z 29004KT 27/17 A3006 RMK A01 T02700170  RH  054%=      5-min Rain = 0
KBI1 140652Z 29004KT 27/17 A3006 RMK A01 T02700170  RH  054%=      5-min Rain = 0
KBI1 140653Z 29004KT 27/17 A3006 RMK A01 T02700170  RH  054%=      5-min Rain = 0
KBI1 140654Z 29005KT 27/17 A3006 RMK A01 T02700171  RH  054%=      5-min Rain = 0
KBI1 140655Z 29004KT 27/17 A3006 RMK A01 T02700170  RH  055%=      5-min Rain = 0
KBI1 140656Z 30005KT 27/17 A3006 RMK A01 T02690170  RH  055%=      5-min Rain = 0
KBI1 140657Z 29004KT 27/17 A3006 RMK A01 T02690170  RH  055%=      5-min Rain = 0
KBI1 140658Z 30004KT 27/17 A3006 RMK A01 T02690170  RH  055%=      5-min Rain = 0
KBI1 140659Z 31003KT 27/17 A3006 RMK A01 T02690170  RH  055%=      5-min Rain = 0
KBI1 140700Z 32003KT 27/17 A3006 RMK A01 T02690170  RH  055%=      5-min Rain = 0
KBI1 140701Z 32003KT 27/17 A3006 RMK A01 T02680169  RH  055%=      5-min Rain = 0
KBI1 140702Z 32003KT 27/17 A3006 RMK A01 T02680170  RH  055%=      5-min Rain = 0
KBI1 140703Z 33003KT 27/17 A3006 RMK A01 T02670169  RH  055%=      5-min Rain = 0
KBI1 140704Z 33002KT 27/17 A3006 RMK A01 T02670169  RH  055%=      5-min Rain = 0
KBI1 140705Z 34003KT 27/17 A3006 RMK A01 T02660169  RH  055%=      5-min Rain = 0
KBI1 140706Z 35003KT 27/17 A3006 RMK A01 T02650169  RH  056%=      5-min Rain = 0
KBI1 140707Z 00005KT 26/17 A3006 RMK A01 T02630169  RH  056%=      5-min Rain = 0
KBI1 140708Z 02006KT 26/17 A3006 RMK A01 T02620169  RH  057%=      5-min Rain = 0
KBI1 140709Z 02007KT 26/17 A3006 RMK A01 T02620170  RH  057%=      5-min Rain = 0
KBI1 140710Z 02008KT 26/17 A3006 RMK A01 T02620170  RH  057%=      5-min Rain = 0
KBI1 140711Z 00005KT 26/17 A3006 RMK A01 T02640170  RH  057%=      5-min Rain = 0
KBI1 140712Z 33003KT 26/17 A3006 RMK A01 T02640170  RH  056%=      5-min Rain = 0
KBI1 140713Z 31004KT 27/17 A3006 RMK A01 T02660169  RH  055%=      5-min Rain = 0
KBI1 140714Z 33004KT 27/17 A3006 RMK A01 T02670169  RH  055%=      5-min Rain = 0
KBI1 140715Z 34004KT 27/17 A3006 RMK A01 T02690169  RH  055%=      5-min Rain = 0
KBI1 140716Z 34004KT 27/17 A3006 RMK A01 T02690170  RH  054%=      5-min Rain = 0
KBI1 140717Z 34003KT 27/17 A3006 RMK A01 T02690170  RH  054%=      5-min Rain = 0
KBI1 140718Z 34003KT 27/17 A3006 RMK A01 T02690170  RH  055%=      5-min Rain = 0
KBI1 140719Z 34002KT 27/17 A3006 RMK A01 T02680170  RH  055%=      5-min Rain = 0
KBI1 140720Z 34003KT 27/17 A3006 RMK A01 T02670170  RH  055%=      5-min Rain = 0
KBI1 140721Z 34003KT 27/17 A3006 RMK A01 T02660170  RH  055%=      5-min Rain = 0
KBI1 140722Z 35003KT 27/17 A3007 RMK A01 T02650170  RH  056%=      5-min Rain = 0
KBI1 140723Z 36004KT 26/17 A3007 RMK A01 T02640170  RH  056%=      5-min Rain = 0
KBI1 140724Z 00004KT 26/17 A3007 RMK A01 T02640171  RH  057%=      5-min Rain = 0
KBI1 140725Z 01005KT 26/17 A3007 RMK A01 T02620170  RH  057%=      5-min Rain = 0
KBI1 140726Z 01004KT 26/17 A3007 RMK A01 T02620171  RH  057%=      5-min Rain = 0
KBI1 140727Z 01003KT 26/17 A3007 RMK A01 T02610171  RH  058%=      5-min Rain = 0
KBI1 140728Z 03002KT 26/17 A3007 RMK A01 T02610171  RH  058%=      5-min Rain = 0
KBI1 140729Z 05003KT 26/17 A3007 RMK A01 T02610170  RH  057%=      5-min Rain = 0
KBI1 140730Z 07004KT 26/17 A3007 RMK A01 T02620171  RH  057%=      5-min Rain = 0
KBI1 140731Z 07004KT 26/17 A3007 RMK A01 T02630171  RH  057%=      5-min Rain = 0
KBI1 140732Z 08005KT 26/17 A3007 RMK A01 T02640171  RH  057%=      5-min Rain = 0
KBI1 140733Z 08006KT 26/17 A3007 RMK A01 T02640171  RH  057%=      5-min Rain = 0
KBI1 140734Z 09007KT 26/17 A3007 RMK A01 T02640172  RH  057%=      5-min Rain = 0
KBI1 140735Z 09007KT 26/17 A3007 RMK A01 T02640173  RH  057%=      5-min Rain = 0
KBI1 140736Z 09006KT 26/17 A3007 RMK A01 T02620173  RH  058%=      5-min Rain = 0
KBI1 140737Z 10004KT 26/17 A3007 RMK A01 T02600173  RH  059%=      5-min Rain = 0
KBI1 140738Z 10003KT 26/17 A3007 RMK A01 T02590173  RH  059%=      5-min Rain = 0
KBI1 140739Z 11004KT 26/17 A3007 RMK A01 T02590174  RH  059%=      5-min Rain = 0
KBI1 140740Z 13003KT 26/17 A3007 RMK A01 T02590174  RH  059%=      5-min Rain = 0
KBI1 140741Z 13002KT 26/17 A3007 RMK A01 T02590174  RH  060%=      5-min Rain = 0
KBI1 140742Z 14003KT 26/18 A3007 RMK A01 T02590175  RH  060%=      5-min Rain = 0
KBI1 140743Z 14002KT 26/18 A3007 RMK A01 T02590175  RH  060%=      5-min Rain = 0
KBI1 140744Z 14002KT 26/18 A3007 RMK A01 T02580175  RH  060%=      5-min Rain = 0
KBI1 140745Z 12002KT 26/18 A3006 RMK A01 T02580175  RH  060%=      5-min Rain = 0
KBI1 140746Z 12003KT 26/18 A3006 RMK A01 T02580175  RH  060%=      5-min Rain = 0
KBI1 140747Z 11004KT 26/18 A3006 RMK A01 T02580176  RH  060%=      5-min Rain = 0
KBI1 140748Z 09004KT 26/18 A3006 RMK A01 T02580175  RH  060%=      5-min Rain = 0
KBI1 140749Z 09004KT 26/18 A3006 RMK A01 T02580175  RH  060%=      5-min Rain = 0
KBI1 140750Z 07004KT 26/18 A3006 RMK A01 T02580175  RH  060%=      5-min Rain = 0
KBI1 140751Z 07004KT 26/18 A3006 RMK A01 T02580175  RH  060%=      5-min Rain = 0
KBI1 140752Z 07004KT 26/18 A3006 RMK A01 T02580175  RH  060%=      5-min Rain = 0
KBI1 140753Z 07004KT 26/18 A3006 RMK A01 T02580175  RH  060%=      5-min Rain = 0
KBI1 140754Z 08004KT 26/18 A3006 RMK A01 T02590175  RH  060%=      5-min Rain = 0
KBI1 140755Z 09004KT 26/18 A3006 RMK A01 T02590176  RH  060%=      5-min Rain = 0
KBI1 140756Z 10004KT 26/18 A3006 RMK A01 T02590177  RH  060%=      5-min Rain = 0
KBI1 140757Z 11004KT 26/18 A3006 RMK A01 T02580176  RH  061%=      5-min Rain = 0
KBI1 140758Z 13002KT 26/18 A3006 RMK A01 T02580176  RH  061%=      5-min Rain = 0
KBI1 140759Z 13002KT 26/18 A3006 RMK A01 T02580177  RH  061%=      5-min Rain = 0
KBI1 140800Z 16003KT 26/18 A3006 RMK A01 T02580177  RH  061%=      5-min Rain = 0
KBI1 140801Z 16003KT 26/18 A3006 RMK A01 T02570177  RH  061%=      5-min Rain = 0
KBI1 140802Z 16003KT 26/18 A3006 RMK A01 T02560177  RH  062%=      5-min Rain = 0
KBI1 140803Z 15003KT 26/18 A3006 RMK A01 T02550177  RH  062%=      5-min Rain = 0
KBI1 140804Z 14003KT 26/18 A3006 RMK A01 T02550177  RH  062%=      5-min Rain = 0
KBI1 140805Z 14003KT 26/18 A3006 RMK A01 T02550177  RH  062%=      5-min Rain = 0
KBI1 140806Z 14003KT 25/18 A3006 RMK A01 T02540177  RH  062%=      5-min Rain = 0
KBI1 140807Z 13003KT 25/18 A3006 RMK A01 T02540178  RH  063%=      5-min Rain = 0
KBI1 140808Z 13003KT 25/18 A3006 RMK A01 T02540178  RH  063%=      5-min Rain = 0
KBI1 140809Z 12002KT 25/18 A3006 RMK A01 T02530178  RH  063%=      5-min Rain = 0
KBI1 140810Z 13003KT 25/18 A3006 RMK A01 T02530178  RH  063%=      5-min Rain = 0
KBI1 140811Z 13003KT 25/18 A3006 RMK A01 T02530178  RH  063%=      5-min Rain = 0
KBI1 140812Z 12005KT 25/18 A3006 RMK A01 T02530178  RH  063%=      5-min Rain = 0
KBI1 140813Z 11004KT 25/18 A3006 RMK A01 T02530178  RH  063%=      5-min Rain = 0
KBI1 140814Z 10003KT 25/18 A3006 RMK A01 T02530179  RH  063%=      5-min Rain = 0
KBI1 140815Z 10003KT 25/18 A3006 RMK A01 T02530179  RH  063%=      5-min Rain = 0
KBI1 140816Z 10003KT 25/18 A3006 RMK A01 T02520179  RH  064%=      5-min Rain = 0
KBI1 140817Z 11002KT 25/18 A3006 RMK A01 T02520179  RH  064%=      5-min Rain = 0
KBI1 140818Z 14002KT 25/18 A3006 RMK A01 T02510178  RH  064%=      5-min Rain = 0
KBI1 140819Z 14003KT 25/18 A3006 RMK A01 T02510179  RH  064%=      5-min Rain = 0
KBI1 140820Z 14002KT 25/18 A3006 RMK A01 T02510178  RH  064%=      5-min Rain = 0
KBI1 140821Z 14002KT 25/18 A3006 RMK A01 T02510178  RH  064%=      5-min Rain = 0
KBI1 140822Z 14001KT 25/18 A3006 RMK A01 T02510178  RH  064%=      5-min Rain = 0
KBI1 140823Z 14000KT 25/18 A3006 RMK A01 T02510178  RH  064%=      5-min Rain = 0
KBI1 140824Z 14000KT 25/18 A3006 RMK A01 T02510178  RH  064%=      5-min Rain = 0
KBI1 140825Z 14001KT 25/18 A3005 RMK A01 T02500178  RH  064%=      5-min Rain = 0
KBI1 140826Z 14001KT 25/18 A3005 RMK A01 T02500178  RH  064%=      5-min Rain = 0
KBI1 140827Z 14000KT 25/18 A3005 RMK A01 T02500178  RH  064%=      5-min Rain = 0
KBI1 140828Z 14000KT 25/18 A3005 RMK A01 T02490178  RH  064%=      5-min Rain = 0
KBI1 140829Z 14001KT 25/18 A3006 RMK A01 T02490178  RH  065%=      5-min Rain = 0
KBI1 140830Z 14001KT 25/18 A3006 RMK A01 T02480178  RH  065%=      5-min Rain = 0
KBI1 140831Z 14001KT 25/18 A3006 RMK A01 T02480178  RH  065%=      5-min Rain = 0
KBI1 140832Z 14002KT 25/18 A3006 RMK A01 T02470178  RH  065%=      5-min Rain = 0
KBI1 140833Z 13002KT 25/18 A3006 RMK A01 T02470178  RH  065%=      5-min Rain = 0
KBI1 140834Z 13002KT 25/18 A3006 RMK A01 T02470178  RH  065%=      5-min Rain = 0
KBI1 140835Z 13002KT 25/18 A3006 RMK A01 T02470178  RH  065%=      5-min Rain = 0
KBI1 140836Z 13002KT 25/18 A3006 RMK A01 T02470178  RH  066%=      5-min Rain = 0
KBI1 140837Z 12002KT 25/18 A3006 RMK A01 T02460178  RH  066%=      5-min Rain = 0
KBI1 140838Z 12002KT 25/18 A3006 RMK A01 T02460178  RH  066%=      5-min Rain = 0
KBI1 140839Z 12002KT 25/18 A3006 RMK A01 T02470178  RH  065%=      5-min Rain = 0
KBI1 140840Z 13002KT 25/18 A3006 RMK A01 T02480178  RH  065%=      5-min Rain = 0
KBI1 140841Z 14002KT 25/18 A3006 RMK A01 T02480179  RH  065%=      5-min Rain = 0
KBI1 140842Z 14001KT 25/18 A3006 RMK A01 T02480178  RH  065%=      5-min Rain = 0
KBI1 140843Z 14001KT 25/18 A3006 RMK A01 T02480179  RH  065%=      5-min Rain = 0
KBI1 140844Z 14000KT 25/18 A3006 RMK A01 T02480179  RH  065%=      5-min Rain = 0
KBI1 140845Z 14000KT 25/18 A3006 RMK A01 T02470178  RH  065%=      5-min Rain = 0
KBI1 140846Z 14000KT 25/18 A3006 RMK A01 T02470178  RH  066%=      5-min Rain = 0
KBI1 140847Z 14001KT 25/18 A3006 RMK A01 T02470179  RH  066%=      5-min Rain = 0
KBI1 140848Z 14001KT 25/18 A3006 RMK A01 T02470179  RH  066%=      5-min Rain = 0
KBI1 140849Z 14001KT 25/18 A3006 RMK A01 T02470179  RH  066%=      5-min Rain = 0
KBI1 140850Z 14001KT 25/18 A3006 RMK A01 T02470179  RH  066%=      5-min Rain = 0
KBI1 140851Z 14000KT 25/18 A3006 RMK A01 T02470179  RH  066%=      5-min Rain = 0
KBI1 140852Z 00000KT 25/18 A3006 RMK A01 T02470179  RH  066%=      5-min Rain = 0
KBI1 140853Z 00000KT 25/18 A3006 RMK A01 T02460179  RH  066%=      5-min Rain = 0
KBI1 140854Z 14000KT 25/18 A3006 RMK A01 T02460179  RH  066%=      5-min Rain = 0
KBI1 140855Z 14001KT 25/18 A3006 RMK A01 T02460179  RH  066%=      5-min Rain = 0
KBI1 140856Z 14001KT 25/18 A3005 RMK A01 T02460179  RH  066%=      5-min Rain = 0
KBI1 140857Z 14002KT 25/18 A3005 RMK A01 T02460179  RH  066%=      5-min Rain = 0
KBI1 140858Z 15002KT 25/18 A3005 RMK A01 T02460179  RH  066%=      5-min Rain = 0
KBI1 140859Z 15003KT 25/18 A3005 RMK A01 T02460179  RH  066%=      5-min Rain = 0
KBI1 140900Z 17003KT 25/18 A3005 RMK A01 T02460179  RH  066%=      5-min Rain = 0
KBI1 140901Z 17003KT 25/18 A3005 RMK A01 T02450179  RH  067%=      5-min Rain = 0
KBI1 140902Z 17003KT 25/18 A3005 RMK A01 T02450179  RH  067%=      5-min Rain = 0
KBI1 140903Z 17003KT 24/18 A3005 RMK A01 T02440178  RH  067%=      5-min Rain = 0
KBI1 140904Z 18003KT 24/18 A3005 RMK A01 T02440178  RH  067%=      5-min Rain = 0
KBI1 140905Z 17004KT 24/18 A3005 RMK A01 T02430178  RH  067%=      5-min Rain = 0
KBI1 140906Z 17003KT 24/18 A3005 RMK A01 T02430178  RH  067%=      5-min Rain = 0
KBI1 140907Z 18003KT 24/18 A3005 RMK A01 T02430179  RH  067%=      5-min Rain = 0
KBI1 140908Z 18003KT 24/18 A3005 RMK A01 T02420180  RH  068%=      5-min Rain = 0
KBI1 140909Z 19003KT 24/18 A3005 RMK A01 T02420181  RH  069%=      5-min Rain = 0
KBI1 140910Z 19003KT 24/18 A3005 RMK A01 T02410182  RH  069%=      5-min Rain = 0
KBI1 140911Z 19002KT 24/18 A3005 RMK A01 T02410182  RH  070%=      5-min Rain = 0
KBI1 140912Z 18002KT 24/18 A3005 RMK A01 T02410183  RH  070%=      5-min Rain = 0
KBI1 140913Z 17002KT 24/18 A3005 RMK A01 T02400183  RH  070%=      5-min Rain = 0
KBI1 140914Z 16003KT 24/18 A3005 RMK A01 T02400183  RH  071%=      5-min Rain = 0
KBI1 140915Z 17003KT 24/18 A3005 RMK A01 T02400184  RH  071%=      5-min Rain = 0
KBI1 140916Z 18004KT 24/18 A3005 RMK A01 T02390184  RH  071%=      5-min Rain = 0
KBI1 140917Z 17004KT 24/18 A3005 RMK A01 T02390183  RH  071%=      5-min Rain = 0
KBI1 140918Z 17004KT 24/18 A3005 RMK A01 T02380183  RH  071%=      5-min Rain = 0
KBI1 140919Z 17004KT 24/18 A3005 RMK A01 T02380183  RH  071%=      5-min Rain = 0
KBI1 140920Z 16003KT 24/18 A3005 RMK A01 T02380183  RH  071%=      5-min Rain = 0
KBI1 140921Z 16003KT 24/18 A3005 RMK A01 T02380183  RH  072%=      5-min Rain = 0
KBI1 140922Z 16003KT 24/18 A3005 RMK A01 T02370183  RH  072%=      5-min Rain = 0
KBI1 140923Z 17004KT 24/18 A3005 RMK A01 T02370184  RH  072%=      5-min Rain = 0
KBI1 140924Z 17004KT 24/18 A3005 RMK A01 T02370184  RH  072%=      5-min Rain = 0
KBI1 140925Z 18004KT 24/18 A3005 RMK A01 T02370184  RH  072%=      5-min Rain = 0
KBI1 140926Z 18005KT 24/18 A3005 RMK A01 T02370184  RH  072%=      5-min Rain = 0
KBI1 140927Z 19005KT 24/18 A3005 RMK A01 T02370183  RH  072%=      5-min Rain = 0
KBI1 140928Z 19005KT 24/18 A3005 RMK A01 T02360183  RH  072%=      5-min Rain = 0
KBI1 140929Z 19004KT 24/18 A3005 RMK A01 T02360184  RH  073%=      5-min Rain = 0
KBI1 140930Z 19004KT 24/18 A3005 RMK A01 T02360184  RH  073%=      5-min Rain = 0
KBI1 140931Z 19003KT 24/18 A3005 RMK A01 T02350184  RH  073%=      5-min Rain = 0
KBI1 140932Z 19003KT 24/18 A3005 RMK A01 T02350184  RH  073%=      5-min Rain = 0
KBI1 140933Z 18004KT 24/18 A3005 RMK A01 T02350184  RH  073%=      5-min Rain = 0
KBI1 140934Z 18004KT 24/18 A3005 RMK A01 T02350183  RH  073%=      5-min Rain = 0
KBI1 140935Z 18005KT 24/18 A3005 RMK A01 T02350183  RH  073%=      5-min Rain = 0
KBI1 140936Z 18005KT 24/18 A3005 RMK A01 T02350183  RH  073%=      5-min Rain = 0
KBI1 140937Z 17005KT 24/18 A3005 RMK A01 T02350183  RH  073%=      5-min Rain = 0
KBI1 140938Z 17005KT 24/18 A3005 RMK A01 T02350183  RH  073%=      5-min Rain = 0
KBI1 140939Z 17004KT 24/18 A3005 RMK A01 T02350184  RH  073%=      5-min Rain = 0
KBI1 140940Z 18004KT 24/18 A3005 RMK A01 T02350184  RH  073%=      5-min Rain = 0
KBI1 140941Z 17004KT 24/18 A3005 RMK A01 T02350184  RH  073%=      5-min Rain = 0
KBI1 140942Z 17005KT 24/18 A3005 RMK A01 T02350184  RH  073%=      5-min Rain = 0
KBI1 140943Z 17005KT 24/18 A3005 RMK A01 T02360184  RH  073%=      5-min Rain = 0
KBI1 140944Z 17006KT 24/18 A3005 RMK A01 T02360184  RH  073%=      5-min Rain = 0
KBI1 140945Z 17006KT 24/19 A3004 RMK A01 T02350185  RH  073%=      5-min Rain = 0
KBI1 140946Z 17006KT 24/19 A3004 RMK A01 T02350186  RH  074%=      5-min Rain = 0
KBI1 140947Z 17006KT 24/19 A3004 RMK A01 T02350187  RH  074%=      5-min Rain = 0
KBI1 140948Z 17005KT 24/19 A3004 RMK A01 T02350187  RH  075%=      5-min Rain = 0
KBI1 140949Z 17004KT 24/19 A3004 RMK A01 T02350187  RH  075%=      5-min Rain = 0
KBI1 140950Z 17004KT 23/19 A3004 RMK A01 T02340187  RH  075%=      5-min Rain = 0
KBI1 140951Z 17005KT 23/19 A3004 RMK A01 T02340187  RH  075%=      5-min Rain = 0
KBI1 140952Z 17004KT 23/19 A3004 RMK A01 T02340187  RH  075%=      5-min Rain = 0
KBI1 140953Z 17005KT 23/19 A3004 RMK A01 T02340186  RH  075%=      5-min Rain = 0
KBI1 140954Z 17006KT 23/19 A3004 RMK A01 T02340186  RH  075%=      5-min Rain = 0
KBI1 140955Z 17006KT 23/19 A3004 RMK A01 T02340186  RH  074%=      5-min Rain = 0
KBI1 140956Z 17006KT 23/19 A3004 RMK A01 T02340186  RH  074%=      5-min Rain = 0
KBI1 140957Z 17006KT 23/19 A3004 RMK A01 T02340185  RH  074%=      5-min Rain = 0
KBI1 140958Z 17007KT 23/18 A3004 RMK A01 T02340184  RH  074%=      5-min Rain = 0
KBI1 140959Z 17007KT 23/18 A3004 RMK A01 T02340184  RH  073%=      5-min Rain = 0
KBI1 141000Z 17006KT 23/18 A3004 RMK A01 T02340183  RH  073%=      5-min Rain = 0
KBI1 141001Z 17006KT 23/18 A3004 RMK A01 T02340183  RH  073%=      5-min Rain = 0
KBI1 141002Z 17004KT 23/18 A3004 RMK A01 T02340183  RH  073%=      5-min Rain = 0
KBI1 141003Z 17005KT 23/18 A3004 RMK A01 T02330183  RH  073%=      5-min Rain = 0
KBI1 141004Z 17005KT 23/18 A3004 RMK A01 T02330183  RH  073%=      5-min Rain = 0
KBI1 141005Z 16005KT 23/18 A3004 RMK A01 T02330183  RH  073%=      5-min Rain = 0
KBI1 141006Z 16006KT 23/18 A3004 RMK A01 T02330183  RH  073%=      5-min Rain = 0
KBI1 141007Z 16006KT 23/18 A3004 RMK A01 T02330183  RH  073%=      5-min Rain = 0
KBI1 141008Z 16006KT 23/18 A3004 RMK A01 T02330183  RH  073%=      5-min Rain = 0
KBI1 141009Z 16006KT 23/18 A3004 RMK A01 T02330182  RH  073%=      5-min Rain = 0
KBI1 141010Z 16006KT 23/18 A3004 RMK A01 T02340183  RH  073%=      5-min Rain = 0
KBI1 141011Z 16005KT 23/18 A3004 RMK A01 T02330183  RH  073%=      5-min Rain = 0
KBI1 141012Z 15005KT 23/18 A3004 RMK A01 T02340183  RH  073%=      5-min Rain = 0
KBI1 141013Z 15005KT 23/18 A3004 RMK A01 T02340183  RH  073%=      5-min Rain = 0
KBI1 141014Z 16005KT 24/18 A3004 RMK A01 T02350184  RH  073%=      5-min Rain = 0
KBI1 141015Z 16004KT 24/18 A3004 RMK A01 T02350184  RH  073%=      5-min Rain = 0
KBI1 141016Z 16005KT 24/18 A3004 RMK A01 T02350183  RH  073%=      5-min Rain = 0
KBI1 141017Z 16005KT 24/18 A3004 RMK A01 T02350184  RH  073%=      5-min Rain = 0
KBI1 141018Z 15005KT 24/18 A3004 RMK A01 T02360184  RH  073%=      5-min Rain = 0
KBI1 141019Z 16004KT 24/18 A3004 RMK A01 T02360184  RH  073%=      5-min Rain = 0
KBI1 141020Z 15005KT 24/18 A3004 RMK A01 T02360184  RH  073%=      5-min Rain = 0
KBI1 141021Z 15005KT 24/19 A3004 RMK A01 T02350185  RH  073%=      5-min Rain = 0
KBI1 141022Z 15005KT 24/19 A3004 RMK A01 T02350185  RH  074%=      5-min Rain = 0
KBI1 141023Z 15005KT 24/19 A3004 RMK A01 T02350186  RH  074%=      5-min Rain = 0
KBI1 141024Z 15005KT 24/19 A3004 RMK A01 T02350187  RH  074%=      5-min Rain = 0
KBI1 141025Z 15005KT 24/19 A3004 RMK A01 T02350187  RH  075%=      5-min Rain = 0
KBI1 141026Z 15006KT 24/19 A3004 RMK A01 T02350188  RH  075%=      5-min Rain = 0
KBI1 141027Z 15005KT 24/19 A3004 RMK A01 T02350189  RH  075%=      5-min Rain = 0
KBI1 141028Z 15005KT 24/19 A3005 RMK A01 T02350189  RH  075%=      5-min Rain = 0
KBI1 141029Z 16005KT 23/19 A3005 RMK A01 T02340189  RH  076%=      5-min Rain = 0
KBI1 141030Z 16006KT 23/19 A3005 RMK A01 T02340190  RH  076%=      5-min Rain = 0
KBI1 141031Z 16005KT 23/19 A3005 RMK A01 T02340190  RH  077%=      5-min Rain = 0
KBI1 141032Z 16005KT 23/19 A3005 RMK A01 T02340191  RH  077%=      5-min Rain = 0
KBI1 141033Z 16006KT 23/19 A3005 RMK A01 T02340191  RH  077%=      5-min Rain = 0
KBI1 141034Z 17007KT 23/19 A3005 RMK A01 T02340192  RH  077%=      5-min Rain = 0
KBI1 141035Z 17007KT 23/19 A3005 RMK A01 T02330192  RH  078%=      5-min Rain = 0
KBI1 141036Z 17006KT 23/19 A3004 RMK A01 T02340193  RH  078%=      5-min Rain = 0
KBI1 141037Z 16006KT 23/19 A3004 RMK A01 T02330193  RH  078%=      5-min Rain = 0
KBI1 141038Z 17006KT 23/19 A3005 RMK A01 T02330193  RH  078%=      5-min Rain = 0
KBI1 141039Z 17005KT 23/19 A3005 RMK A01 T02330193  RH  078%=      5-min Rain = 0
KBI1 141040Z 17006KT 23/19 A3005 RMK A01 T02330193  RH  078%=      5-min Rain = 0
KBI1 141041Z 17005KT 23/19 A3005 RMK A01 T02320193  RH  078%=      5-min Rain = 0
KBI1 141042Z 17006KT 23/19 A3005 RMK A01 T02320193  RH  079%=      5-min Rain = 0
KBI1 141043Z 17006KT 23/19 A3005 RMK A01 T02320193  RH  079%=      5-min Rain = 0
KBI1 141044Z 16005KT 23/19 A3004 RMK A01 T02320193  RH  079%=      5-min Rain = 0
KBI1 141045Z 17006KT 23/19 A3004 RMK A01 T02320193  RH  079%=      5-min Rain = 0
KBI1 141046Z 17005KT 23/19 A3005 RMK A01 T02320193  RH  079%=      5-min Rain = 0
KBI1 141047Z 18005KT 23/19 A3005 RMK A01 T02310193  RH  079%=      5-min Rain = 0
KBI1 141048Z 17005KT 23/19 A3005 RMK A01 T02300192  RH  079%=      5-min Rain = 0
KBI1 141049Z 17004KT 23/19 A3005 RMK A01 T02290192  RH  080%=      5-min Rain = 0
KBI1 141050Z 16004KT 23/19 A3005 RMK A01 T02290192  RH  080%=      5-min Rain = 0
KBI1 141051Z 17004KT 23/19 A3005 RMK A01 T02290193  RH  080%=      5-min Rain = 0
KBI1 141052Z 16004KT 23/19 A3005 RMK A01 T02290193  RH  080%=      5-min Rain = 0
KBI1 141053Z 17004KT 23/19 A3005 RMK A01 T02280193  RH  080%=      5-min Rain = 0
KBI1 141054Z 17004KT 23/19 A3005 RMK A01 T02280193  RH  081%=      5-min Rain = 0
KBI1 141055Z 17004KT 23/19 A3005 RMK A01 T02280193  RH  080%=      5-min Rain = 0
KBI1 141056Z 16004KT 23/19 A3005 RMK A01 T02280193  RH  080%=      5-min Rain = 0
KBI1 141057Z 16004KT 23/19 A3005 RMK A01 T02280193  RH  080%=      5-min Rain = 0
KBI1 141058Z 16003KT 23/19 A3005 RMK A01 T02280193  RH  080%=      5-min Rain = 0
KBI1 141059Z 16003KT 23/19 A3005 RMK A01 T02280193  RH  081%=      5-min Rain = 0
KBI1 141100Z 16003KT 23/19 A3005 RMK A01 T02280193  RH  081%=      5-min Rain = 0
KBI1 141101Z 16003KT 23/19 A3005 RMK A01 T02280193  RH  081%=      5-min Rain = 0
KBI1 141102Z 15004KT 23/19 A3005 RMK A01 T02270193  RH  081%=      5-min Rain = 0
KBI1 141103Z 16003KT 23/19 A3005 RMK A01 T02270193  RH  081%=      5-min Rain = 0
KBI1 141104Z 15003KT 23/19 A3005 RMK A01 T02270193  RH  081%=      5-min Rain = 0
KBI1 141105Z 16003KT 23/19 A3005 RMK A01 T02280193  RH  081%=      5-min Rain = 0
KBI1 141106Z 15003KT 23/19 A3005 RMK A01 T02270193  RH  081%=      5-min Rain = 0
KBI1 141107Z 16003KT 23/19 A3005 RMK A01 T02270193  RH  081%=      5-min Rain = 0
KBI1 141108Z 17003KT 23/19 A3005 RMK A01 T02280193  RH  081%=      5-min Rain = 0
KBI1 141109Z 17003KT 23/19 A3005 RMK A01 T02280192  RH  080%=      5-min Rain = 0
KBI1 141110Z 16003KT 23/19 A3005 RMK A01 T02280192  RH  080%=      5-min Rain = 0
KBI1 141111Z 16003KT 23/19 A3005 RMK A01 T02280192  RH  080%=      5-min Rain = 0
KBI1 141112Z 16003KT 23/19 A3005 RMK A01 T02290192  RH  080%=      5-min Rain = 0
KBI1 141113Z 16003KT 23/19 A3005 RMK A01 T02290192  RH  080%=      5-min Rain = 0
KBI1 141114Z 16003KT 23/19 A3005 RMK A01 T02290192  RH  080%=      5-min Rain = 0
KBI1 141115Z 15003KT 23/19 A3006 RMK A01 T02290192  RH  080%=      5-min Rain = 0
KBI1 141116Z 16002KT 23/19 A3006 RMK A01 T02290192  RH  080%=      5-min Rain = 0
KBI1 141117Z 16002KT 23/19 A3006 RMK A01 T02290192  RH  080%=      5-min Rain = 0
KBI1 141118Z 16002KT 23/19 A3006 RMK A01 T02290192  RH  080%=      5-min Rain = 0
KBI1 141119Z 16002KT 23/19 A3006 RMK A01 T02290192  RH  080%=      5-min Rain = 0
KBI1 141120Z 17001KT 23/19 A3006 RMK A01 T02290192  RH  080%=      5-min Rain = 0
KBI1 141121Z 16001KT 23/19 A3006 RMK A01 T02290192  RH  080%=      5-min Rain = 0
KBI1 141122Z 16001KT 23/19 A3006 RMK A01 T02290192  RH  080%=      5-min Rain = 0
KBI1 141123Z 17001KT 23/19 A3006 RMK A01 T02290192  RH  079%=      5-min Rain = 0
KBI1 141124Z 18001KT 23/19 A3006 RMK A01 T02290191  RH  079%=      5-min Rain = 0
KBI1 141125Z 18001KT 23/19 A3006 RMK A01 T02290191  RH  080%=      5-min Rain = 0
KBI1 141126Z 18001KT 23/19 A3006 RMK A01 T02290192  RH  080%=      5-min Rain = 0
KBI1 141127Z 18000KT 23/19 A3006 RMK A01 T02290192  RH  080%=      5-min Rain = 0
KBI1 141128Z 18000KT 23/19 A3006 RMK A01 T02290192  RH  080%=      5-min Rain = 0
KBI1 141129Z 00000KT 23/19 A3006 RMK A01 T02290192  RH  080%=      5-min Rain = 0
KBI1 141130Z 18000KT 23/19 A3006 RMK A01 T02290192  RH  080%=      5-min Rain = 0
KBI1 141131Z 18001KT 23/19 A3006 RMK A01 T02290192  RH  080%=      5-min Rain = 0
KBI1 141132Z 18000KT 23/19 A3006 RMK A01 T02280192  RH  080%=      5-min Rain = 0
KBI1 141133Z 18000KT 23/19 A3006 RMK A01 T02280192  RH  080%=      5-min Rain = 0
KBI1 141134Z 18000KT 23/19 A3006 RMK A01 T02280192  RH  080%=      5-min Rain = 0
KBI1 141135Z 18000KT 23/19 A3006 RMK A01 T02280191  RH  079%=      5-min Rain = 0
KBI1 141136Z 18000KT 23/19 A3006 RMK A01 T02270189  RH  079%=      5-min Rain = 0
KBI1 141137Z 18000KT 23/19 A3006 RMK A01 T02260188  RH  079%=      5-min Rain = 0
KBI1 141138Z 18000KT 23/19 A3007 RMK A01 T02250188  RH  079%=      5-min Rain = 0
KBI1 141139Z 18001KT 23/19 A3007 RMK A01 T02250187  RH  079%=      5-min Rain = 0
KBI1 141140Z 18001KT 22/19 A3007 RMK A01 T02240188  RH  080%=      5-min Rain = 0
KBI1 141141Z 17001KT 22/19 A3007 RMK A01 T02240188  RH  080%=      5-min Rain = 0
KBI1 141142Z 17002KT 22/19 A3007 RMK A01 T02230189  RH  081%=      5-min Rain = 0
KBI1 141143Z 17002KT 22/19 A3007 RMK A01 T02230190  RH  082%=      5-min Rain = 0
KBI1 141144Z 18002KT 22/19 A3007 RMK A01 T02220190  RH  082%=      5-min Rain = 0
KBI1 141145Z 18002KT 22/19 A3007 RMK A01 T02230191  RH  082%=      5-min Rain = 0
KBI1 141146Z 18001KT 22/19 A3007 RMK A01 T02230191  RH  082%=      5-min Rain = 0
KBI1 141147Z 18000KT 22/19 A3007 RMK A01 T02230190  RH  081%=      5-min Rain = 0
KBI1 141148Z 00000KT 22/19 A3007 RMK A01 T02230189  RH  081%=      5-min Rain = 0
KBI1 141149Z 26000KT 22/19 A3007 RMK A01 T02220188  RH  081%=      5-min Rain = 0
KBI1 141150Z 00000KT 22/19 A3007 RMK A01 T02220187  RH  081%=      5-min Rain = 0
KBI1 141151Z 00000KT 22/19 A3007 RMK A01 T02220187  RH  080%=      5-min Rain = 0
KBI1 141152Z 00000KT 22/19 A3007 RMK A01 T02220187  RH  080%=      5-min Rain = 0
KBI1 141153Z 00000KT 22/19 A3007 RMK A01 T02220187  RH  081%=      5-min Rain = 0
KBI1 141154Z 00000KT 22/19 A3007 RMK A01 T02220187  RH  081%=      5-min Rain = 0
KBI1 141155Z 00000KT 22/19 A3007 RMK A01 T02220185  RH  080%=      5-min Rain = 0
KBI1 141156Z 00000KT 22/18 A3007 RMK A01 T02210184  RH  079%=      5-min Rain = 0
KBI1 141157Z 00000KT 22/18 A3007 RMK A01 T02200184  RH  080%=      5-min Rain = 0
KBI1 141158Z 00000KT 22/18 A3007 RMK A01 T02200183  RH  080%=      5-min Rain = 0
KBI1 141159Z 00000KT 22/18 A3007 RMK A01 T02190184  RH  080%=      5-min Rain = 0
KBI1 141200Z 00000KT 22/18 A3008 RMK A01 T02190184  RH  081%=      5-min Rain = 0
KBI1 141201Z 00000KT 22/19 A3008 RMK A01 T02190185  RH  081%=      5-min Rain = 0
KBI1 141202Z 00000KT 22/18 A3008 RMK A01 T02180184  RH  081%=      5-min Rain = 0
KBI1 141203Z 00000KT 22/18 A3008 RMK A01 T02180184  RH  081%=      5-min Rain = 0
KBI1 141204Z 00000KT 22/19 A3008 RMK A01 T02170185  RH  082%=      5-min Rain = 0
KBI1 141205Z 00000KT 22/19 A3008 RMK A01 T02170185  RH  082%=      5-min Rain = 0
KBI1 141206Z 24001KT 22/19 A3008 RMK A01 T02170185  RH  082%=      5-min Rain = 0
KBI1 141207Z 22001KT 22/19 A3008 RMK A01 T02170186  RH  083%=      5-min Rain = 0
KBI1 141208Z 21002KT 22/19 A3008 RMK A01 T02170187  RH  083%=      5-min Rain = 0
KBI1 141209Z 21001KT 22/19 A3008 RMK A01 T02180186  RH  082%=      5-min Rain = 0
KBI1 141210Z 21001KT 22/19 A3008 RMK A01 T02180188  RH  083%=      5-min Rain = 0
KBI1 141211Z 20001KT 22/19 A3008 RMK A01 T02200189  RH  083%=      5-min Rain = 0
KBI1 141212Z 20002KT 22/19 A3008 RMK A01 T02210189  RH  082%=      5-min Rain = 0
KBI1 141213Z 19003KT 22/19 A3008 RMK A01 T02220188  RH  081%=      5-min Rain = 0
KBI1 141214Z 20002KT 22/19 A3008 RMK A01 T02230187  RH  080%=      5-min Rain = 0
KBI1 141215Z 21001KT 22/19 A3008 RMK A01 T02230185  RH  079%=      5-min Rain = 0
KBI1 141216Z 21001KT 22/19 A3008 RMK A01 T02230186  RH  080%=      5-min Rain = 0
KBI1 141217Z 21002KT 22/19 A3008 RMK A01 T02230186  RH  080%=      5-min Rain = 0
KBI1 141218Z 21001KT 22/19 A3008 RMK A01 T02240186  RH  079%=      5-min Rain = 0
KBI1 141219Z 21000KT 23/19 A3008 RMK A01 T02260186  RH  079%=      5-min Rain = 0
KBI1 141220Z 00000KT 23/19 A3008 RMK A01 T02260186  RH  078%=      5-min Rain = 0
KBI1 141221Z 00000KT 23/18 A3008 RMK A01 T02250184  RH  077%=      5-min Rain = 0
KBI1 141222Z 32001KT 22/19 A3008 RMK A01 T02240185  RH  078%=      5-min Rain = 0
KBI1 141223Z 32002KT 22/18 A3008 RMK A01 T02230184  RH  079%=      5-min Rain = 0
KBI1 141224Z 32001KT 22/18 A3008 RMK A01 T02220184  RH  079%=      5-min Rain = 0
KBI1 141225Z 32001KT 22/19 A3008 RMK A01 T02210185  RH  080%=      5-min Rain = 0
KBI1 141226Z 32001KT 22/19 A3008 RMK A01 T02210185  RH  080%=      5-min Rain = 0
KBI1 141227Z 32001KT 22/18 A3008 RMK A01 T02210184  RH  079%=      5-min Rain = 0
KBI1 141228Z 32001KT 22/18 A3008 RMK A01 T02200184  RH  080%=      5-min Rain = 0
KBI1 141229Z 32001KT 22/18 A3008 RMK A01 T02200183  RH  080%=      5-min Rain = 0
KBI1 141230Z 32000KT 22/18 A3008 RMK A01 T02190184  RH  080%=      5-min Rain = 0
KBI1 141231Z 32000KT 22/18 A3008 RMK A01 T02190183  RH  080%=      5-min Rain = 0
KBI1 141232Z 32000KT 22/18 A3008 RMK A01 T02180183  RH  080%=      5-min Rain = 0
KBI1 141233Z 32000KT 22/18 A3008 RMK A01 T02170183  RH  081%=      5-min Rain = 0
KBI1 141234Z 00000KT 22/18 A3008 RMK A01 T02170182  RH  080%=      5-min Rain = 0
KBI1 141235Z 00000KT 22/18 A3008 RMK A01 T02160179  RH  080%=      5-min Rain = 0
KBI1 141236Z 00000KT 22/18 A3008 RMK A01 T02150180  RH  080%=      5-min Rain = 0
KBI1 141237Z 00000KT 22/18 A3008 RMK A01 T02150179  RH  080%=      5-min Rain = 0
KBI1 141238Z 00000KT 22/18 A3008 RMK A01 T02150180  RH  081%=      5-min Rain = 0
KBI1 141239Z 00000KT 22/18 A3008 RMK A01 T02150181  RH  081%=      5-min Rain = 0
KBI1 141240Z 00000KT 22/18 A3008 RMK A01 T02150182  RH  081%=      5-min Rain = 0
KBI1 141241Z 21001KT 22/19 A3008 RMK A01 T02170185  RH  082%=      5-min Rain = 0
KBI1 141242Z 20002KT 22/19 A3008 RMK A01 T02180187  RH  082%=      5-min Rain = 0
KBI1 141243Z 20002KT 22/19 A3008 RMK A01 T02190187  RH  082%=      5-min Rain = 0
KBI1 141244Z 20002KT 22/19 A3009 RMK A01 T02200187  RH  081%=      5-min Rain = 0
KBI1 141245Z 19002KT 22/19 A3009 RMK A01 T02210187  RH  081%=      5-min Rain = 0
KBI1 141246Z 19001KT 22/19 A3009 RMK A01 T02220187  RH  080%=      5-min Rain = 0
KBI1 141247Z 19002KT 22/19 A3009 RMK A01 T02230187  RH  080%=      5-min Rain = 0
KBI1 141248Z 19002KT 22/19 A3009 RMK A01 T02230186  RH  080%=      5-min Rain = 0
KBI1 141249Z 20002KT 22/19 A3009 RMK A01 T02240187  RH  079%=      5-min Rain = 0
KBI1 141250Z 19002KT 23/19 A3009 RMK A01 T02250186  RH  079%=      5-min Rain = 0
KBI1 141251Z 20002KT 23/19 A3009 RMK A01 T02250186  RH  078%=      5-min Rain = 0
KBI1 141252Z 20002KT 23/19 A3009 RMK A01 T02260186  RH  078%=      5-min Rain = 0
KBI1 141253Z 20001KT 23/19 A3009 RMK A01 T02260186  RH  078%=      5-min Rain = 0
KBI1 141254Z 20002KT 23/19 A3009 RMK A01 T02270186  RH  078%=      5-min Rain = 0
KBI1 141255Z 20002KT 23/19 A3009 RMK A01 T02280187  RH  078%=      5-min Rain = 0
KBI1 141256Z 19002KT 23/19 A3009 RMK A01 T02280187  RH  077%=      5-min Rain = 0
KBI1 141257Z 19002KT 23/19 A301 RMK A01 T02290186  RH  077%=      5-min Rain = 0
KBI1 141258Z 18002KT 23/19 A301 RMK A01 T02290186  RH  077%=      5-min Rain = 0
KBI1 141259Z 17002KT 23/19 A301 RMK A01 T02300186  RH  076%=      5-min Rain = 0
KBI1 141300Z 17002KT 23/19 A301 RMK A01 T02300187  RH  076%=      5-min Rain = 0
KBI1 141301Z 19001KT 23/19 A301 RMK A01 T02310186  RH  076%=      5-min Rain = 0
KBI1 141302Z 19001KT 23/19 A301 RMK A01 T02310186  RH  076%=      5-min Rain = 0
KBI1 141303Z 19000KT 23/19 A301 RMK A01 T02320186  RH  076%=      5-min Rain = 0
KBI1 141304Z 19000KT 23/19 A301 RMK A01 T02320186  RH  075%=      5-min Rain = 0
KBI1 141305Z 00000KT 23/19 A301 RMK A01 T02320186  RH  075%=      5-min Rain = 0
KBI1 141306Z 25000KT 23/19 A301 RMK A01 T02330186  RH  075%=      5-min Rain = 0
KBI1 141307Z 32002KT 23/19 A301 RMK A01 T02330187  RH  075%=      5-min Rain = 0
KBI1 141308Z 33005KT 23/19 A301 RMK A01 T02330187  RH  075%=      5-min Rain = 0
KBI1 141309Z 32005KT 23/19 A301 RMK A01 T02330185  RH  074%=      5-min Rain = 0
KBI1 141310Z 32003KT 23/19 A301 RMK A01 T02330185  RH  075%=      5-min Rain = 0
KBI1 141311Z 32002KT 23/18 A301 RMK A01 T02320184  RH  074%=      5-min Rain = 0
KBI1 141312Z 32002KT 23/18 A301 RMK A01 T02320183  RH  074%=      5-min Rain = 0
KBI1 141313Z 32001KT 23/18 A301 RMK A01 T02330183  RH  073%=      5-min Rain = 0
KBI1 141314Z 32002KT 23/18 A301 RMK A01 T02330183  RH  073%=      5-min Rain = 0
KBI1 141315Z 31002KT 23/18 A301 RMK A01 T02340183  RH  073%=      5-min Rain = 0
KBI1 141316Z 33002KT 24/18 A301 RMK A01 T02350183  RH  072%=      5-min Rain = 0
KBI1 141317Z 34003KT 24/18 A301 RMK A01 T02360183  RH  072%=      5-min Rain = 0
KBI1 141318Z 35003KT 24/18 A301 RMK A01 T02370184  RH  072%=      5-min Rain = 0
KBI1 141319Z 34002KT 24/18 A301 RMK A01 T02380184  RH  072%=      5-min Rain = 0
KBI1 141320Z 34003KT 24/18 A301 RMK A01 T02390184  RH  071%=      5-min Rain = 0
KBI1 141321Z 34003KT 24/18 A301 RMK A01 T02400183  RH  070%=      5-min Rain = 0
KBI1 141322Z 34004KT 24/18 A301 RMK A01 T02410184  RH  070%=      5-min Rain = 0
KBI1 141323Z 34004KT 24/18 A301 RMK A01 T02420184  RH  070%=      5-min Rain = 0
KBI1 141324Z 34003KT 24/18 A301 RMK A01 T02430183  RH  069%=      5-min Rain = 0
KBI1 141325Z 34003KT 24/18 A301 RMK A01 T02440182  RH  068%=      5-min Rain = 0
KBI1 141326Z 35003KT 25/18 A301 RMK A01 T02450183  RH  069%=      5-min Rain = 0
KBI1 141327Z 35002KT 25/18 A301 RMK A01 T02460183  RH  068%=      5-min Rain = 0
KBI1 141328Z 00002KT 25/18 A301 RMK A01 T02470183  RH  068%=      5-min Rain = 0
KBI1 141329Z 01002KT 25/18 A3011 RMK A01 T02490183  RH  067%=      5-min Rain = 0
KBI1 141330Z 01002KT 25/18 A3011 RMK A01 T02500183  RH  067%=      5-min Rain = 0
KBI1 141331Z 00002KT 25/18 A3011 RMK A01 T02500183  RH  066%=      5-min Rain = 0
KBI1 141332Z 01003KT 25/18 A3011 RMK A01 T02510183  RH  066%=      5-min Rain = 0
KBI1 141333Z 01002KT 25/18 A3011 RMK A01 T02510183  RH  066%=      5-min Rain = 0
KBI1 141334Z 01003KT 25/18 A3011 RMK A01 T02510182  RH  066%=      5-min Rain = 0
KBI1 141335Z 01003KT 25/18 A3011 RMK A01 T02520182  RH  065%=      5-min Rain = 0
KBI1 141336Z 00003KT 25/18 A3011 RMK A01 T02520182  RH  065%=      5-min Rain = 0
KBI1 141337Z 01003KT 25/18 A3011 RMK A01 T02520181  RH  065%=      5-min Rain = 0
KBI1 141338Z 01003KT 25/18 A3011 RMK A01 T02530181  RH  065%=      5-min Rain = 0
KBI1 141339Z 01003KT 25/18 A3011 RMK A01 T02540181  RH  064%=      5-min Rain = 0
KBI1 141340Z 01002KT 25/18 A3011 RMK A01 T02540180  RH  064%=      5-min Rain = 0
KBI1 141341Z 01003KT 26/18 A3011 RMK A01 T02550181  RH  064%=      5-min Rain = 0
KBI1 141342Z 01002KT 26/18 A3011 RMK A01 T02560182  RH  064%=      5-min Rain = 0
KBI1 141343Z 01003KT 26/18 A3011 RMK A01 T02560183  RH  064%=      5-min Rain = 0
KBI1 141344Z 01003KT 26/18 A3011 RMK A01 T02570183  RH  063%=      5-min Rain = 0
KBI1 141345Z 01004KT 26/18 A3011 RMK A01 T02580183  RH  064%=      5-min Rain = 0
KBI1 141346Z 36004KT 26/18 A3011 RMK A01 T02590184  RH  063%=      5-min Rain = 0
KBI1 141347Z 01004KT 26/18 A3011 RMK A01 T02600183  RH  063%=      5-min Rain = 0
KBI1 141348Z 00005KT 26/18 A3011 RMK A01 T02600183  RH  063%=      5-min Rain = 0
KBI1 141349Z 00005KT 26/18 A3011 RMK A01 T02610183  RH  062%=      5-min Rain = 0
KBI1 141350Z 36005KT 26/18 A3011 RMK A01 T02610183  RH  062%=      5-min Rain = 0
KBI1 141351Z 36004KT 26/18 A3011 RMK A01 T02610183  RH  062%=      5-min Rain = 0
KBI1 141352Z 35004KT 26/19 A3011 RMK A01 T02630185  RH  062%=      5-min Rain = 0
KBI1 141353Z 34004KT 27/18 A3011 RMK A01 T02650184  RH  061%=      5-min Rain = 0
KBI1 141354Z 34005KT 27/18 A3011 RMK A01 T02660182  RH  060%=      5-min Rain = 0
KBI1 141355Z 34005KT 27/18 A3011 RMK A01 T02660182  RH  060%=      5-min Rain = 0
KBI1 141356Z 35004KT 27/18 A3011 RMK A01 T02660181  RH  059%=      5-min Rain = 0
KBI1 141357Z 00004KT 27/18 A3011 RMK A01 T02670182  RH  060%=      5-min Rain = 0
KBI1 141358Z 35005KT 27/18 A3011 RMK A01 T02680181  RH  059%=      5-min Rain = 0
KBI1 141359Z 34004KT 27/18 A3011 RMK A01 T02680181  RH  059%=      5-min Rain = 0
KBI1 141400Z 35005KT 27/18 A3011 RMK A01 T02690181  RH  058%=      5-min Rain = 0
KBI1 141401Z 36005KT 27/18 A3011 RMK A01 T02690180  RH  058%=      5-min Rain = 0
KBI1 141402Z 36004KT 27/18 A3011 RMK A01 T02690181  RH  058%=      5-min Rain = 0
KBI1 141403Z 34005KT 27/18 A3011 RMK A01 T02700181  RH  058%=      5-min Rain = 0
KBI1 141404Z 35005KT 27/18 A3011 RMK A01 T02710181  RH  058%=      5-min Rain = 0
KBI1 141405Z 35005KT 27/18 A3011 RMK A01 T02720179  RH  057%=      5-min Rain = 0
KBI1 141406Z 35005KT 27/18 A3011 RMK A01 T02720179  RH  057%=      5-min Rain = 0
KBI1 141407Z 35005KT 27/18 A3011 RMK A01 T02720180  RH  057%=      5-min Rain = 0
KBI1 141408Z 34004KT 27/18 A3011 RMK A01 T02730180  RH  057%=      5-min Rain = 0
KBI1 141409Z 33004KT 28/18 A3011 RMK A01 T02750182  RH  057%=      5-min Rain = 0
KBI1 141410Z 33004KT 28/18 A3011 RMK A01 T02770180  RH  055%=      5-min Rain = 0
KBI1 141411Z 34005KT 28/18 A3011 RMK A01 T02780181  RH  055%=      5-min Rain = 0
KBI1 141412Z 35004KT 28/18 A3011 RMK A01 T02780180  RH  055%=      5-min Rain = 0
KBI1 141413Z 33004KT 28/18 A3011 RMK A01 T02780180  RH  055%=      5-min Rain = 0
KBI1 141414Z 33004KT 28/18 A3012 RMK A01 T02780180  RH  055%=      5-min Rain = 0
KBI1 141415Z 33004KT 28/18 A3012 RMK A01 T02780179  RH  055%=      5-min Rain = 0
KBI1 141416Z 34004KT 28/18 A3012 RMK A01 T02790179  RH  055%=      5-min Rain = 0
KBI1 141417Z 33005KT 28/18 A3012 RMK A01 T02790179  RH  054%=      5-min Rain = 0
KBI1 141418Z 33005KT 28/18 A3012 RMK A01 T02800180  RH  054%=      5-min Rain = 0
KBI1 141419Z 33005KT 28/18 A3012 RMK A01 T02800179  RH  054%=      5-min Rain = 0
KBI1 141420Z 34005KT 28/18 A3012 RMK A01 T02800179  RH  054%=      5-min Rain = 0
KBI1 141421Z 33005KT 28/18 A3012 RMK A01 T02800179  RH  054%=      5-min Rain = 0
KBI1 141422Z 34005KT 28/18 A3012 RMK A01 T02800179  RH  054%=      5-min Rain = 0
KBI1 141423Z 35005KT 28/18 A3012 RMK A01 T02800181  RH  055%=      5-min Rain = 0
KBI1 141424Z 34005KT 28/18 A3012 RMK A01 T02820181  RH  054%=      5-min Rain = 0
KBI1 141425Z 34006KT 28/18 A3012 RMK A01 T02830179  RH  053%=      5-min Rain = 0
KBI1 141426Z 34005KT 28/18 A3012 RMK A01 T02830179  RH  053%=      5-min Rain = 0
KBI1 141427Z 36005KT 28/18 A3012 RMK A01 T02800178  RH  054%=      5-min Rain = 0
KBI1 141428Z 34005KT 28/18 A3012 RMK A01 T02790179  RH  054%=      5-min Rain = 0
KBI1 141429Z 33006KT 28/18 A3012 RMK A01 T02790179  RH  054%=      5-min Rain = 0
KBI1 141430Z 34004KT 28/18 A3012 RMK A01 T02790178  RH  054%=      5-min Rain = 0
KBI1 141431Z 33004KT 28/18 A3012 RMK A01 T02790178  RH  054%=      5-min Rain = 0
KBI1 141432Z 36005KT 28/18 A3012 RMK A01 T02810179  RH  054%=      5-min Rain = 0
KBI1 141433Z 02004KT 28/18 A3012 RMK A01 T02820179  RH  053%=      5-min Rain = 0
KBI1 141434Z 01004KT 28/18 A3012 RMK A01 T02820179  RH  054%=      5-min Rain = 0
KBI1 141435Z 36003KT 28/18 A3012 RMK A01 T02830179  RH  053%=      5-min Rain = 0
KBI1 141436Z 32003KT 28/18 A3012 RMK A01 T02840179  RH  053%=      5-min Rain = 0
KBI1 141437Z 33003KT 29/18 A3012 RMK A01 T02850179  RH  053%=      5-min Rain = 0
KBI1 141438Z 34004KT 29/18 A3012 RMK A01 T02860180  RH  053%=      5-min Rain = 0
KBI1 141439Z 34005KT 29/18 A3012 RMK A01 T02870179  RH  052%=      5-min Rain = 0
KBI1 141440Z 33005KT 29/18 A3012 RMK A01 T02880179  RH  052%=      5-min Rain = 0
KBI1 141441Z 34005KT 29/18 A3012 RMK A01 T02880180  RH  052%=      5-min Rain = 0
KBI1 141442Z 34005KT 29/18 A3012 RMK A01 T02890179  RH  051%=      5-min Rain = 0
KBI1 141443Z 35004KT 29/18 A3012 RMK A01 T02890178  RH  051%=      5-min Rain = 0
KBI1 141444Z 34005KT 29/18 A3012 RMK A01 T02890180  RH  052%=      5-min Rain = 0
KBI1 141445Z 35004KT 29/18 A3013 RMK A01 T02890179  RH  051%=      5-min Rain = 0
KBI1 141446Z 35004KT 29/18 A3012 RMK A01 T02890179  RH  052%=      5-min Rain = 0
KBI1 141447Z 36005KT 29/18 A3013 RMK A01 T02880179  RH  052%=      5-min Rain = 0
KBI1 141448Z 35005KT 29/18 A3013 RMK A01 T02880180  RH  052%=      5-min Rain = 0
KBI1 141449Z 01005KT 29/18 A3013 RMK A01 T02890183  RH  053%=      5-min Rain = 0
KBI1 141450Z 01004KT 29/19 A3013 RMK A01 T02890185  RH  053%=      5-min Rain = 0
KBI1 141451Z 36004KT 29/19 A3013 RMK A01 T02910185  RH  053%=      5-min Rain = 0
KBI1 141452Z 00006KT 29/19 A3013 RMK A01 T02920185  RH  052%=      5-min Rain = 0
KBI1 141453Z 02006KT 29/19 A3013 RMK A01 T02920188  RH  054%=      5-min Rain = 0
KBI1 141454Z 02005KT 29/19 A3013 RMK A01 T02920188  RH  054%=      5-min Rain = 0
KBI1 141455Z 01007KT 29/19 A3013 RMK A01 T02920188  RH  054%=      5-min Rain = 0
KBI1 141456Z 02005KT 29/19 A3013 RMK A01 T02920188  RH  054%=      5-min Rain = 0
KBI1 141457Z 01005KT 29/19 A3013 RMK A01 T02910189  RH  054%=      5-min Rain = 0
KBI1 141458Z 02005KT 29/19 A3013 RMK A01 T02910188  RH  054%=      5-min Rain = 0
KBI1 141459Z 04003KT 29/19 A3013 RMK A01 T02910188  RH  054%=      5-min Rain = 0
KBI1 141500Z 04004KT 29/19 A3013 RMK A01 T02910189  RH  054%=      5-min Rain = 0
KBI1 141501Z 03004KT 29/19 A3013 RMK A01 T02940189  RH  053%=      5-min Rain = 0
KBI1 141502Z 02003KT 30/19 A3013 RMK A01 T02950188  RH  052%=      5-min Rain = 0
KBI1 141503Z 03002KT 30/19 A3013 RMK A01 T02950187  RH  052%=      5-min Rain = 0
KBI1 141504Z 35001KT 30/19 A3013 RMK A01 T02950187  RH  052%=      5-min Rain = 0
KBI1 141505Z 34004KT 30/19 A3013 RMK A01 T02960189  RH  053%=      5-min Rain = 0
KBI1 141506Z 36003KT 30/19 A3013 RMK A01 T02950188  RH  052%=      5-min Rain = 0
KBI1 141507Z 01002KT 29/19 A3013 RMK A01 T02940188  RH  053%=      5-min Rain = 0
KBI1 141508Z 35000KT 29/19 A3013 RMK A01 T02940188  RH  053%=      5-min Rain = 0
KBI1 141509Z 02003KT 30/19 A3013 RMK A01 T02950189  RH  053%=      5-min Rain = 0
KBI1 141510Z 01002KT 30/19 A3013 RMK A01 T02950187  RH  052%=      5-min Rain = 0
KBI1 141511Z 35003KT 29/19 A3013 RMK A01 T02940188  RH  053%=      5-min Rain = 0
KBI1 141512Z 34003KT 29/19 A3013 RMK A01 T02940188  RH  053%=      5-min Rain = 0
KBI1 141513Z 36003KT 29/19 A3013 RMK A01 T02940188  RH  053%=      5-min Rain = 0
KBI1 141514Z 00003KT 30/19 A3013 RMK A01 T02950189  RH  053%=      5-min Rain = 0
KBI1 141515Z 02004KT 30/19 A3013 RMK A01 T02960190  RH  053%=      5-min Rain = 0
KBI1 141516Z 01003KT 30/19 A3013 RMK A01 T02960189  RH  053%=      5-min Rain = 0
KBI1 141517Z 29002KT 30/19 A3013 RMK A01 T02960191  RH  053%=      5-min Rain = 0
KBI1 141518Z 31003KT 30/19 A3013 RMK A01 T02970190  RH  052%=      5-min Rain = 0
KBI1 141519Z 29003KT 30/19 A3013 RMK A01 T02980188  RH  052%=      5-min Rain = 0
KBI1 141520Z 28002KT 30/19 A3013 RMK A01 T02980189  RH  052%=      5-min Rain = 0
KBI1 141521Z 33003KT 30/19 A3013 RMK A01 T02980191  RH  052%=      5-min Rain = 0
KBI1 141522Z 33004KT 30/19 A3013 RMK A01 T02990191  RH  052%=      5-min Rain = 0
KBI1 141523Z 34004KT 30/19 A3013 RMK A01 T03000190  RH  052%=      5-min Rain = 0
KBI1 141524Z 33006KT 30/19 A3013 RMK A01 T03000191  RH  052%=      5-min Rain = 0
KBI1 141525Z 35003KT 30/19 A3014 RMK A01 T02990190  RH  052%=      5-min Rain = 0
KBI1 141526Z 33002KT 30/19 A3014 RMK A01 T02980190  RH  052%=      5-min Rain = 0
KBI1 141527Z 00005KT 30/19 A3014 RMK A01 T02980191  RH  053%=      5-min Rain = 0
KBI1 141528Z 35006KT 30/19 A3014 RMK A01 T03010193  RH  053%=      5-min Rain = 0
KBI1 141529Z 01007KT 30/19 A3014 RMK A01 T03020193  RH  052%=      5-min Rain = 0
KBI1 141530Z 01006KT 30/19 A3014 RMK A01 T03020192  RH  052%=      5-min Rain = 0
KBI1 141531Z 00005KT 30/19 A3014 RMK A01 T03010192  RH  052%=      5-min Rain = 0
KBI1 141532Z 05003KT 30/19 A3014 RMK A01 T02990192  RH  053%=      5-min Rain = 0
KBI1 141533Z 07002KT 30/19 A3014 RMK A01 T02970191  RH  053%=      5-min Rain = 0
KBI1 141534Z 02004KT 30/19 A3014 RMK A01 T02970193  RH  054%=      5-min Rain = 0
KBI1 141535Z 03006KT 30/19 A3014 RMK A01 T02980193  RH  054%=      5-min Rain = 0
KBI1 141536Z 35006KT 30/20 A3014 RMK A01 T02990196  RH  054%=      5-min Rain = 0
KBI1 141537Z 36005KT 30/20 A3014 RMK A01 T03010197  RH  054%=      5-min Rain = 0
KBI1 141538Z 01006KT 30/20 A3014 RMK A01 T03020196  RH  053%=      5-min Rain = 0
KBI1 141539Z 01005KT 30/20 A3014 RMK A01 T03010196  RH  053%=      5-min Rain = 0
KBI1 141540Z 04003KT 30/20 A3014 RMK A01 T02990197  RH  054%=      5-min Rain = 0
KBI1 141541Z 03005KT 30/20 A3014 RMK A01 T02990198  RH  055%=      5-min Rain = 0
KBI1 141542Z 04006KT 30/20 A3014 RMK A01 T03000198  RH  054%=      5-min Rain = 0
KBI1 141543Z 36006KT 30/20 A3014 RMK A01 T03010199  RH  054%=      5-min Rain = 0
KBI1 141544Z 34007KT 30/20 A3014 RMK A01 T03030199  RH  054%=      5-min Rain = 0
KBI1 141545Z 33008KT 30/20 A3014 RMK A01 T03040198  RH  053%=      5-min Rain = 0
KBI1 141546Z 33005KT 30/20 A3014 RMK A01 T03040198  RH  053%=      5-min Rain = 0
KBI1 141547Z 03007KT 31/20 A3014 RMK A01 T03050200  RH  054%=      5-min Rain = 0
KBI1 141548Z 02006KT 30/20 A3014 RMK A01 T03040199  RH  053%=      5-min Rain = 0
KBI1 141549Z 01006KT 30/20 A3014 RMK A01 T03020200  RH  054%=      5-min Rain = 0
KBI1 141550Z 04007KT 30/20 A3014 RMK A01 T03030200  RH  054%=      5-min Rain = 0
KBI1 141551Z 04007KT 30/20 A3014 RMK A01 T03040198  RH  053%=      5-min Rain = 0
KBI1 141552Z 01007KT 30/20 A3014 RMK A01 T03020199  RH  054%=      5-min Rain = 0
KBI1 141553Z 00007KT 30/20 A3014 RMK A01 T03030200  RH  054%=      5-min Rain = 0
KBI1 141554Z 01007KT 31/20 A3014 RMK A01 T03060198  RH  052%=      5-min Rain = 0
KBI1 141555Z 01005KT 31/20 A3015 RMK A01 T03060197  RH  052%=      5-min Rain = 0
KBI1 141556Z 03002KT 31/20 A3015 RMK A01 T03050197  RH  053%=      5-min Rain = 0
KBI1 141557Z 03002KT 30/20 A3015 RMK A01 T03040196  RH  052%=      5-min Rain = 0
KBI1 141558Z 09002KT 31/20 A3015 RMK A01 T03050196  RH  052%=      5-min Rain = 0
KBI1 141559Z 07002KT 31/20 A3015 RMK A01 T03060196  RH  052%=      5-min Rain = 0
KBI1 141600Z 36003KT 31/20 A3015 RMK A01 T03070197  RH  052%=      5-min Rain = 0
KBI1 141601Z 34003KT 31/20 A3015 RMK A01 T03060196  RH  052%=      5-min Rain = 0
KBI1 141602Z 32002KT 31/20 A3015 RMK A01 T03060196  RH  052%=      5-min Rain = 0
KBI1 141603Z 01002KT 31/20 A3015 RMK A01 T03050195  RH  052%=      5-min Rain = 0
KBI1 141604Z 02002KT 31/20 A3015 RMK A01 T03070198  RH  052%=      5-min Rain = 0
KBI1 141605Z 04003KT 31/20 A3015 RMK A01 T03100198  RH  051%=      5-min Rain = 0
KBI1 141606Z 02005KT 31/20 A3015 RMK A01 T03110197  RH  051%=      5-min Rain = 0
KBI1 141607Z 03009KT 31/20 A3015 RMK A01 T03090197  RH  051%=      5-min Rain = 0
KBI1 141608Z 36007KT 31/20 A3015 RMK A01 T03070196  RH  052%=      5-min Rain = 0
KBI1 141609Z 32005KT 31/20 A3015 RMK A01 T03050195  RH  052%=      5-min Rain = 0
KBI1 141610Z 32004KT 30/19 A3015 RMK A01 T03040194  RH  052%=      5-min Rain = 0
KBI1 141611Z 00004KT 31/20 A3015 RMK A01 T03050197  RH  053%=      5-min Rain = 0
KBI1 141612Z 02006KT 31/20 A3015 RMK A01 T03090197  RH  051%=      5-min Rain = 0
KBI1 141613Z 02007KT 31/20 A3015 RMK A01 T03090196  RH  051%=      5-min Rain = 0
KBI1 141614Z 02007KT 31/20 A3015 RMK A01 T03090196  RH  051%=      5-min Rain = 0
KBI1 141615Z 01007KT 31/20 A3015 RMK A01 T03090197  RH  051%=      5-min Rain = 0
KBI1 141616Z 03005KT 31/20 A3015 RMK A01 T03100195  RH  050%=      5-min Rain = 0
KBI1 141617Z 00005KT 31/20 A3015 RMK A01 T03090196  RH  051%=      5-min Rain = 0
KBI1 141618Z 36006KT 31/20 A3015 RMK A01 T03080197  RH  051%=      5-min Rain = 0
KBI1 141619Z 05008KT 31/20 A3015 RMK A01 T03090197  RH  051%=      5-min Rain = 0
KBI1 141620Z 04007KT 31/20 A3015 RMK A01 T03100197  RH  051%=      5-min Rain = 0
KBI1 141621Z 03005KT 31/20 A3015 RMK A01 T03120196  RH  050%=      5-min Rain = 0
KBI1 141622Z 02005KT 31/20 A3015 RMK A01 T03110196  RH  050%=      5-min Rain = 0
KBI1 141623Z 01005KT 31/20 A3015 RMK A01 T03120198  RH  051%=      5-min Rain = 0
KBI1 141624Z 01007KT 31/20 A3015 RMK A01 T03130197  RH  050%=      5-min Rain = 0
KBI1 141625Z 00008KT 31/20 A3015 RMK A01 T03130197  RH  050%=      5-min Rain = 0
KBI1 141626Z 01007KT 31/20 A3015 RMK A01 T03130198  RH  051%=      5-min Rain = 0
KBI1 141627Z 03009KT 32/20 A3015 RMK A01 T03150197  RH  050%=      5-min Rain = 0
KBI1 141628Z 04006KT 32/20 A3015 RMK A01 T03150198  RH  050%=      5-min Rain = 0
KBI1 141629Z 05005KT 31/20 A3015 RMK A01 T03140199  RH  050%=      5-min Rain = 0
KBI1 141630Z 01005KT 31/20 A3015 RMK A01 T03140196  RH  049%=      5-min Rain = 0
KBI1 141631Z 02005KT 31/20 A3015 RMK A01 T03130196  RH  050%=      5-min Rain = 0
KBI1 141632Z 04007KT 31/20 A3015 RMK A01 T03130198  RH  051%=      5-min Rain = 0
KBI1 141633Z 05007KT 32/20 A3015 RMK A01 T03160196  RH  049%=      5-min Rain = 0
KBI1 141634Z 05005KT 32/20 A3015 RMK A01 T03180199  RH  049%=      5-min Rain = 0
KBI1 141635Z 04008KT 32/20 A3015 RMK A01 T03200198  RH  049%=      5-min Rain = 0
KBI1 141636Z 03008KT 32/20 A3015 RMK A01 T03190198  RH  049%=      5-min Rain = 0
KBI1 141637Z 02007KT 32/20 A3015 RMK A01 T03190199  RH  049%=      5-min Rain = 0
KBI1 141638Z 36008KT 32/20 A3015 RMK A01 T03210198  RH  048%=      5-min Rain = 0
KBI1 141639Z 01007KT 32/20 A3015 RMK A01 T03210197  RH  048%=      5-min Rain = 0
KBI1 141640Z 03006KT 32/20 A3015 RMK A01 T03190195  RH  048%=      5-min Rain = 0
KBI1 141641Z 05004KT 32/20 A3015 RMK A01 T03160196  RH  049%=      5-min Rain = 0
KBI1 141642Z 05003KT 32/19 A3015 RMK A01 T03150194  RH  049%=      5-min Rain = 0
KBI1 141643Z 05003KT 32/20 A3015 RMK A01 T03150195  RH  049%=      5-min Rain = 0
KBI1 141644Z 03004KT 32/20 A3015 RMK A01 T03150197  RH  050%=      5-min Rain = 0
KBI1 141645Z 05005KT 32/20 A3015 RMK A01 T03170199  RH  050%=      5-min Rain = 0
KBI1 141646Z 02005KT 32/20 A3015 RMK A01 T03180199  RH  049%=      5-min Rain = 0
KBI1 141647Z 04008KT 32/20 A3015 RMK A01 T03190200  RH  049%=      5-min Rain = 0
KBI1 141648Z 04009KT 32/20 A3015 RMK A01 T03190197  RH  048%=      5-min Rain = 0
KBI1 141649Z 02010KT 32/20 A3015 RMK A01 T03160197  RH  049%=      5-min Rain = 0
KBI1 141650Z 01007KT 31/20 A3015 RMK A01 T03140199  RH  050%=      5-min Rain = 0
KBI1 141651Z 03005KT 32/20 A3015 RMK A01 T03150198  RH  050%=      5-min Rain = 0
KBI1 141652Z 05006KT 32/20 A3015 RMK A01 T03160198  RH  050%=      5-min Rain = 0
KBI1 141653Z 02004KT 32/20 A3015 RMK A01 T03150198  RH  050%=      5-min Rain = 0
KBI1 141654Z 02007KT 32/20 A3015 RMK A01 T03180199  RH  049%=      5-min Rain = 0
KBI1 141655Z 01008KT 32/20 A3015 RMK A01 T03220200  RH  049%=      5-min Rain = 0
KBI1 141656Z 00010KT 33/20 A3015 RMK A01 T03260198  RH  047%=      5-min Rain = 0
KBI1 141657Z 35010KT 32/20 A3015 RMK A01 T03230197  RH  048%=      5-min Rain = 0
KBI1 141658Z 36007KT 32/20 A3014 RMK A01 T03200196  RH  048%=      5-min Rain = 0
KBI1 141659Z 36007KT 32/20 A3014 RMK A01 T03180196  RH  048%=      5-min Rain = 0
KBI1 141700Z 03007KT 32/20 A3014 RMK A01 T03180198  RH  049%=      5-min Rain = 0
KBI1 141701Z 03007KT 32/20 A3014 RMK A01 T03210198  RH  048%=      5-min Rain = 0
KBI1 141702Z 02007KT 32/20 A3014 RMK A01 T03240198  RH  047%=      5-min Rain = 0
KBI1 141703Z 01008KT 33/20 A3014 RMK A01 T03250197  RH  047%=      5-min Rain = 0
KBI1 141704Z 02008KT 32/20 A3015 RMK A01 T03230196  RH  047%=      5-min Rain = 0
KBI1 141705Z 04008KT 32/20 A3015 RMK A01 T03220196  RH  047%=      5-min Rain = 0
KBI1 141706Z 06007G12KT 32/19 A3014 RMK A01 T03200194  RH  047%=      5-min Rain = 0
KBI1 141707Z 04008KT 32/20 A3014 RMK A01 T03170195  RH  049%=      5-min Rain = 0
KBI1 141708Z 03006KT 32/20 A3014 RMK A01 T03170197  RH  049%=      5-min Rain = 0
KBI1 141709Z 01010KT 32/20 A3014 RMK A01 T03210198  RH  048%=      5-min Rain = 0
KBI1 141710Z 36011KT 32/20 A3014 RMK A01 T03240195  RH  047%=      5-min Rain = 0
KBI1 141711Z 01006KT 32/20 A3014 RMK A01 T03220196  RH  047%=      5-min Rain = 0
KBI1 141712Z 06003KT 32/20 A3014 RMK A01 T03220197  RH  048%=      5-min Rain = 0
KBI1 141713Z 00003KT 32/20 A3014 RMK A01 T03220197  RH  048%=      5-min Rain = 0
KBI1 141714Z 01009KT 32/20 A3014 RMK A01 T03230198  RH  048%=      5-min Rain = 0
KBI1 141715Z 00009KT 33/20 A3014 RMK A01 T03250197  RH  047%=      5-min Rain = 0
KBI1 141716Z 01010KT 32/20 A3014 RMK A01 T03240198  RH  047%=      5-min Rain = 0
KBI1 141717Z 01009KT 33/20 A3014 RMK A01 T03250197  RH  047%=      5-min Rain = 0
KBI1 141718Z 02009KT 32/20 A3014 RMK A01 T03230197  RH  047%=      5-min Rain = 0
KBI1 141719Z 04009KT 32/20 A3014 RMK A01 T03230198  RH  048%=      5-min Rain = 0
KBI1 141720Z 05009KT 32/20 A3014 RMK A01 T03220197  RH  048%=      5-min Rain = 0
KBI1 141721Z 06008KT 32/20 A3014 RMK A01 T03190197  RH  048%=      5-min Rain = 0
KBI1 141722Z 06007KT 32/20 A3014 RMK A01 T03180197  RH  049%=      5-min Rain = 0
KBI1 141723Z 03007KT 32/20 A3014 RMK A01 T03170198  RH  049%=      5-min Rain = 0
KBI1 141724Z 05009KT 32/20 A3014 RMK A01 T03210197  RH  048%=      5-min Rain = 0
KBI1 141725Z 36008KT 32/20 A3014 RMK A01 T03220197  RH  047%=      5-min Rain = 0
KBI1 141726Z 35009KT 32/20 A3014 RMK A01 T03230197  RH  047%=      5-min Rain = 0
KBI1 141727Z 01007KT 32/20 A3014 RMK A01 T03240195  RH  046%=      5-min Rain = 0
KBI1 141728Z 02009KT 32/20 A3014 RMK A01 T03240196  RH  047%=      5-min Rain = 0
KBI1 141729Z 00006KT 32/20 A3014 RMK A01 T03240197  RH  047%=      5-min Rain = 0
KBI1 141730Z 02007KT 32/20 A3014 RMK A01 T03220197  RH  048%=      5-min Rain = 0
KBI1 141731Z 04008KT 32/20 A3014 RMK A01 T03230198  RH  048%=      5-min Rain = 0
KBI1 141732Z 03008KT 32/20 A3014 RMK A01 T03240197  RH  047%=      5-min Rain = 0
KBI1 141733Z 02011KT 32/20 A3014 RMK A01 T03220197  RH  048%=      5-min Rain = 0
KBI1 141734Z 03010KT 32/20 A3014 RMK A01 T03210196  RH  048%=      5-min Rain = 0
KBI1 141735Z 03009KT 32/20 A3014 RMK A01 T03220196  RH  047%=      5-min Rain = 0
KBI1 141736Z 01005KT 33/20 A3014 RMK A01 T03250197  RH  047%=      5-min Rain = 0
KBI1 141737Z 33007KT 33/20 A3014 RMK A01 T03300198  RH  046%=      5-min Rain = 0
KBI1 141738Z 00011G21KT 33/20 A3014 RMK A01 T03330196  RH  044%=      5-min Rain = 0
KBI1 141739Z 04007G12KT 33/20 A3014 RMK A01 T03330198  RH  045%=      5-min Rain = 0
KBI1 141740Z 35008KT 33/20 A3014 RMK A01 T03340196  RH  044%=      5-min Rain = 0
KBI1 141741Z 01008KT 33/20 A3014 RMK A01 T03320196  RH  045%=      5-min Rain = 0
KBI1 141742Z 02010KT 33/20 A3014 RMK A01 T03320195  RH  045%=      5-min Rain = 0
KBI1 141743Z 03008KT 33/19 A3014 RMK A01 T03300192  RH  044%=      5-min Rain = 0
KBI1 141744Z 01009KT 33/19 A3014 RMK A01 T03260193  RH  046%=      5-min Rain = 0
KBI1 141745Z 00010KT 33/19 A3014 RMK A01 T03270190  RH  044%=      5-min Rain = 0
KBI1 141746Z 35009KT 33/19 A3014 RMK A01 T03290191  RH  044%=      5-min Rain = 0
KBI1 141747Z 34006KT 33/19 A3014 RMK A01 T03310191  RH  044%=      5-min Rain = 0
KBI1 141748Z 35006KT 33/19 A3014 RMK A01 T03290191  RH  044%=      5-min Rain = 0
KBI1 141749Z 34007KT 33/19 A3014 RMK A01 T03260191  RH  045%=      5-min Rain = 0
KBI1 141750Z 01007KT 33/19 A3014 RMK A01 T03260192  RH  045%=      5-min Rain = 0
KBI1 141751Z 03009KT 33/19 A3014 RMK A01 T03270190  RH  045%=      5-min Rain = 0
KBI1 141752Z 04007KT 33/19 A3014 RMK A01 T03270190  RH  044%=      5-min Rain = 0
KBI1 141753Z 03006KT 33/19 A3014 RMK A01 T03270192  RH  045%=      5-min Rain = 0
KBI1 141754Z 03006KT 33/19 A3014 RMK A01 T03290189  RH  043%=      5-min Rain = 0
KBI1 141755Z 03003KT 33/19 A3014 RMK A01 T03270188  RH  044%=      5-min Rain = 0
KBI1 141756Z 01005KT 33/19 A3014 RMK A01 T03260190  RH  045%=      5-min Rain = 0
KBI1 141757Z 03005KT 33/19 A3013 RMK A01 T03250191  RH  045%=      5-min Rain = 0
KBI1 141758Z 07007KT 33/19 A3013 RMK A01 T03260193  RH  045%=      5-min Rain = 0
KBI1 141759Z 04008KT 33/20 A3014 RMK A01 T03290196  RH  046%=      5-min Rain = 0
KBI1 141800Z 02008KT 33/20 A3014 RMK A01 T03290196  RH  046%=      5-min Rain = 0
KBI1 141801Z 03009KT 33/20 A3013 RMK A01 T03280196  RH  046%=      5-min Rain = 0
KBI1 141802Z 01007KT 33/20 A3013 RMK A01 T03290198  RH  046%=      5-min Rain = 0
KBI1 141803Z 00009KT 33/20 A3013 RMK A01 T03340199  RH  045%=      5-min Rain = 0
KBI1 141804Z 00012KT 34/20 A3013 RMK A01 T03380197  RH  044%=      5-min Rain = 0
KBI1 141805Z 35010KT 34/20 A3013 RMK A01 T03350195  RH  044%=      5-min Rain = 0
KBI1 141806Z 35010KT 33/20 A3013 RMK A01 T03300197  RH  046%=      5-min Rain = 0
KBI1 141807Z 01007KT 33/20 A3013 RMK A01 T03290198  RH  046%=      5-min Rain = 0
KBI1 141808Z 02007KT 33/20 A3013 RMK A01 T03340199  RH  045%=      5-min Rain = 0
KBI1 141809Z 05008KT 34/20 A3013 RMK A01 T03350196  RH  044%=      5-min Rain = 0
KBI1 141810Z 04007KT 34/20 A3013 RMK A01 T03350196  RH  044%=      5-min Rain = 0
KBI1 141811Z 35008G13KT 33/20 A3013 RMK A01 T03330198  RH  045%=      5-min Rain = 0
KBI1 141812Z 35012KT 34/20 A3013 RMK A01 T03360197  RH  044%=      5-min Rain = 0
KBI1 141813Z 02008KT 34/20 A3013 RMK A01 T03370196  RH  044%=      5-min Rain = 0
KBI1 141814Z 03006KT 33/19 A3013 RMK A01 T03320194  RH  044%=      5-min Rain = 0
KBI1 141815Z 02004KT 33/19 A3013 RMK A01 T03300193  RH  045%=      5-min Rain = 0
KBI1 141816Z 01006KT 33/19 A3013 RMK A01 T03290194  RH  045%=      5-min Rain = 0
KBI1 141817Z 02011KT 33/20 A3013 RMK A01 T03300195  RH  045%=      5-min Rain = 0
KBI1 141818Z 04011KT 33/19 A3013 RMK A01 T03320192  RH  044%=      5-min Rain = 0
KBI1 141819Z 01011KT 33/19 A3013 RMK A01 T03320192  RH  044%=      5-min Rain = 0
KBI1 141820Z 01010KT 33/19 A3013 RMK A01 T03290193  RH  045%=      5-min Rain = 0
KBI1 141821Z 01006KT 33/20 A3013 RMK A01 T03270195  RH  046%=      5-min Rain = 0
KBI1 141822Z 00007KT 33/20 A3013 RMK A01 T03270197  RH  046%=      5-min Rain = 0
KBI1 141823Z 01006KT 33/20 A3013 RMK A01 T03290196  RH  045%=      5-min Rain = 0
KBI1 141824Z 02006KT 33/20 A3013 RMK A01 T03300195  RH  045%=      5-min Rain = 0
KBI1 141825Z 01007KT 33/20 A3013 RMK A01 T03290197  RH  046%=      5-min Rain = 0
KBI1 141826Z 01008KT 33/19 A3013 RMK A01 T03310194  RH  045%=      5-min Rain = 0
KBI1 141827Z 01007KT 33/19 A3013 RMK A01 T03310194  RH  044%=      5-min Rain = 0
KBI1 141828Z 03006G11KT 33/20 A3013 RMK A01 T03300197  RH  046%=      5-min Rain = 0
KBI1 141829Z 04010KT 33/20 A3013 RMK A01 T03330195  RH  044%=      5-min Rain = 0
KBI1 141830Z 05008KT 33/19 A3013 RMK A01 T03320194  RH  044%=      5-min Rain = 0
KBI1 141831Z 06008KT 33/20 A3013 RMK A01 T03320195  RH  044%=      5-min Rain = 0
KBI1 141832Z 05010KT 33/20 A3013 RMK A01 T03330196  RH  044%=      5-min Rain = 0
KBI1 141833Z 04007KT 34/20 A3013 RMK A01 T03350196  RH  044%=      5-min Rain = 0
KBI1 141834Z 03010KT 34/20 A3013 RMK A01 T03370198  RH  044%=      5-min Rain = 0
KBI1 141835Z 03011KT 34/20 A3013 RMK A01 T03360196  RH  044%=      5-min Rain = 0
KBI1 141836Z 03008KT 33/20 A3013 RMK A01 T03330198  RH  045%=      5-min Rain = 0
KBI1 141837Z 03008KT 33/20 A3012 RMK A01 T03320196  RH  045%=      5-min Rain = 0
KBI1 141838Z 02006KT 33/20 A3012 RMK A01 T03310195  RH  045%=      5-min Rain = 0
KBI1 141839Z 04005KT 33/20 A3012 RMK A01 T03300196  RH  045%=      5-min Rain = 0
KBI1 141840Z 02006KT 33/20 A3012 RMK A01 T03300196  RH  045%=      5-min Rain = 0
KBI1 141841Z 03007KT 33/20 A3012 RMK A01 T03300197  RH  046%=      5-min Rain = 0
KBI1 141842Z 02007KT 33/20 A3012 RMK A01 T03300196  RH  045%=      5-min Rain = 0
KBI1 141843Z 02012KT 33/20 A3012 RMK A01 T03320198  RH  045%=      5-min Rain = 0
KBI1 141844Z 01012KT 33/20 A3012 RMK A01 T03340195  RH  044%=      5-min Rain = 0
KBI1 141845Z 35009KT 33/20 A3012 RMK A01 T03320195  RH  045%=      5-min Rain = 0
KBI1 141846Z 34007KT 33/19 A3012 RMK A01 T03300194  RH  045%=      5-min Rain = 0
KBI1 141847Z 02007KT 33/19 A3012 RMK A01 T03280194  RH  045%=      5-min Rain = 0
KBI1 141848Z 02008G13KT 33/20 A3012 RMK A01 T03280196  RH  046%=      5-min Rain = 0
KBI1 141849Z 03011KT 33/20 A3012 RMK A01 T03330197  RH  045%=      5-min Rain = 0
KBI1 141850Z 01012KT 34/20 A3012 RMK A01 T03350197  RH  044%=      5-min Rain = 0
KBI1 141851Z 01012KT 34/20 A3012 RMK A01 T03360196  RH  044%=      5-min Rain = 0
KBI1 141852Z 02013KT 34/19 A3012 RMK A01 T03360194  RH  043%=      5-min Rain = 0
KBI1 141853Z 02010KT 34/20 A3012 RMK A01 T03350196  RH  044%=      5-min Rain = 0
KBI1 141854Z 03011KT 33/19 A3012 RMK A01 T03330194  RH  044%=      5-min Rain = 0
KBI1 141855Z 04012KT 33/19 A3011 RMK A01 T03330191  RH  043%=      5-min Rain = 0
KBI1 141856Z 04008KT 33/19 A3011 RMK A01 T03320189  RH  043%=      5-min Rain = 0
KBI1 141857Z 02007KT 33/19 A3011 RMK A01 T03330193  RH  044%=      5-min Rain = 0
KBI1 141858Z 00008KT 34/19 A3011 RMK A01 T03380193  RH  043%=      5-min Rain = 0
KBI1 141859Z 02011KT 34/19 A3011 RMK A01 T03420193  RH  041%=      5-min Rain = 0
KBI1 141900Z 01012KT 34/20 A3011 RMK A01 T03380196  RH  043%=      5-min Rain = 0
KBI1 141901Z 03010KT 34/20 A3011 RMK A01 T03360196  RH  044%=      5-min Rain = 0
KBI1 141902Z 01006KT 33/20 A3011 RMK A01 T03330198  RH  045%=      5-min Rain = 0
KBI1 141903Z 35003KT 33/19 A301 RMK A01 T03340194  RH  044%=      5-min Rain = 0
KBI1 141904Z 04004KT 33/20 A301 RMK A01 T03320196  RH  045%=      5-min Rain = 0
KBI1 141905Z 03002KT 33/19 A301 RMK A01 T03310194  RH  044%=      5-min Rain = 0
KBI1 141906Z 36005KT 33/20 A301 RMK A01 T03300195  RH  045%=      5-min Rain = 0
KBI1 141907Z 33010KT 33/20 A301 RMK A01 T03330197  RH  045%=      5-min Rain = 0
KBI1 141908Z 32007KT 34/20 A3009 RMK A01 T03360195  RH  044%=      5-min Rain = 0
KBI1 141909Z 36010KT 34/20 A3009 RMK A01 T03370196  RH  044%=      5-min Rain = 0
KBI1 141910Z 03009KT 34/20 A301 RMK A01 T03390195  RH  043%=      5-min Rain = 0
KBI1 141911Z 02010KT 34/19 A301 RMK A01 T03390192  RH  042%=      5-min Rain = 0
KBI1 141912Z 02012KT 34/19 A301 RMK A01 T03390191  RH  042%=      5-min Rain = 0
KBI1 141913Z 01012KT 34/19 A301 RMK A01 T03400190  RH  041%=      5-min Rain = 0
KBI1 141914Z 02010KT 34/19 A301 RMK A01 T03370191  RH  042%=      5-min Rain = 0
KBI1 141915Z 00008KT 34/19 A3009 RMK A01 T03350194  RH  043%=      5-min Rain = 0
KBI1 141916Z 00007KT 34/19 A3009 RMK A01 T03350192  RH  043%=      5-min Rain = 0
KBI1 141917Z 00008KT 33/19 A3009 RMK A01 T03340192  RH  043%=      5-min Rain = 0
KBI1 141918Z 02008KT 34/19 A3009 RMK A01 T03350187  RH  042%=      5-min Rain = 0
KBI1 141919Z 02005KT 34/19 A3009 RMK A01 T03350193  RH  043%=      5-min Rain = 0
KBI1 141920Z 01003KT 34/19 A3009 RMK A01 T03360190  RH  042%=      5-min Rain = 0
KBI1 141921Z 00006KT 34/19 A3008 RMK A01 T03360190  RH  042%=      5-min Rain = 0
KBI1 141922Z 02007KT 34/19 A3008 RMK A01 T03370191  RH  042%=      5-min Rain = 0
KBI1 141923Z 00011KT 34/19 A3008 RMK A01 T03400192  RH  042%=      5-min Rain = 0
KBI1 141924Z 35011KT 34/19 A3008 RMK A01 T03440191  RH  041%=      5-min Rain = 0
KBI1 141925Z 01010KT 34/19 A3008 RMK A01 T03440192  RH  041%=      5-min Rain = 0
KBI1 141926Z 03009KT 35/19 A3008 RMK A01 T03450191  RH  040%=      5-min Rain = 0
KBI1 141927Z 01009G15KT 34/19 A3008 RMK A01 T03430190  RH  041%=      5-min Rain = 0
KBI1 141928Z 01011KT 34/19 A3008 RMK A01 T03410190  RH  041%=      5-min Rain = 0
KBI1 141929Z 35014KT 34/19 A3008 RMK A01 T03420188  RH  040%=      5-min Rain = 0
KBI1 141930Z 35010KT 34/19 A3008 RMK A01 T03410190  RH  041%=      5-min Rain = 0
KBI1 141931Z 35010KT 34/19 A3008 RMK A01 T03430191  RH  041%=      5-min Rain = 0
KBI1 141932Z 34008KT 34/19 A3008 RMK A01 T03440193  RH  041%=      5-min Rain = 0
KBI1 141933Z 01010KT 34/19 A3008 RMK A01 T03440193  RH  041%=      5-min Rain = 0
KBI1 141934Z 04012KT 34/20 A3008 RMK A01 T03410195  RH  042%=      5-min Rain = 0
KBI1 141935Z 02013KT 34/20 A3008 RMK A01 T03390195  RH  043%=      5-min Rain = 0
KBI1 141936Z 01014G19KT 34/19 A3008 RMK A01 T03410193  RH  042%=      5-min Rain = 0
KBI1 141937Z 00016KT 34/19 A3008 RMK A01 T03420193  RH  042%=      5-min Rain = 0
KBI1 141938Z 00014KT 34/19 A3008 RMK A01 T03410193  RH  042%=      5-min Rain = 0
KBI1 141939Z 00012G20KT 34/19 A3008 RMK A01 T03410193  RH  042%=      5-min Rain = 0
KBI1 141940Z 01015KT 34/19 A3008 RMK A01 T03400192  RH  042%=      5-min Rain = 0
KBI1 141941Z 02012KT 34/19 A3008 RMK A01 T03410192  RH  042%=      5-min Rain = 0
KBI1 141942Z 02011G16KT 34/19 A3008 RMK A01 T03420191  RH  041%=      5-min Rain = 0
KBI1 141943Z 05010KT 34/19 A3008 RMK A01 T03380192  RH  042%=      5-min Rain = 0
KBI1 141944Z 04012KT 34/19 A3008 RMK A01 T03370192  RH  042%=      5-min Rain = 0
KBI1 141945Z 03009KT 34/20 A3008 RMK A01 T03380195  RH  043%=      5-min Rain = 0
KBI1 141946Z 01012G19KT 34/20 A3008 RMK A01 T03430196  RH  042%=      5-min Rain = 0
KBI1 141947Z 02013KT 35/20 A3008 RMK A01 T03460197  RH  042%=      5-min Rain = 0
KBI1 141948Z 03012KT 34/20 A3008 RMK A01 T03440197  RH  042%=      5-min Rain = 0
KBI1 141949Z 02010KT 34/20 A3008 RMK A01 T03400197  RH  043%=      5-min Rain = 0
KBI1 141950Z 35012KT 34/20 A3008 RMK A01 T03400196  RH  043%=      5-min Rain = 0
KBI1 141951Z 35009KT 34/20 A3008 RMK A01 T03380196  RH  043%=      5-min Rain = 0
KBI1 141952Z 01009KT 34/20 A3008 RMK A01 T03370196  RH  044%=      5-min Rain = 0
KBI1 141953Z 03009KT 34/20 A3008 RMK A01 T03370197  RH  044%=      5-min Rain = 0
KBI1 141954Z 03009KT 34/20 A3008 RMK A01 T03380199  RH  044%=      5-min Rain = 0
KBI1 141955Z 00010KT 34/20 A3008 RMK A01 T03390200  RH  044%=      5-min Rain = 0
KBI1 141956Z 02011KT 34/20 A3008 RMK A01 T03440200  RH  043%=      5-min Rain = 0
KBI1 141957Z 04012KT 35/20 A3008 RMK A01 T03450198  RH  042%=      5-min Rain = 0
KBI1 141958Z 03010KT 34/20 A3008 RMK A01 T03440197  RH  042%=      5-min Rain = 0
KBI1 141959Z 02013KT 34/20 A3008 RMK A01 T03440199  RH  043%=      5-min Rain = 0
KBI1 142000Z 02011KT 35/20 A3008 RMK A01 T03480200  RH  042%=      5-min Rain = 0
KBI1 142001Z 03010KT 35/20 A3008 RMK A01 T03490198  RH  041%=      5-min Rain = 0
KBI1 142002Z 06008KT 35/20 A3008 RMK A01 T03450199  RH  042%=      5-min Rain = 0
KBI1 142003Z 05007KT 34/20 A3008 RMK A01 T03430199  RH  043%=      5-min Rain = 0
KBI1 142004Z 04006KT 34/20 A3008 RMK A01 T03420198  RH  043%=      5-min Rain = 0
KBI1 142005Z 05006KT 34/20 A3008 RMK A01 T03420199  RH  043%=      5-min Rain = 0
KBI1 142006Z 05009KT 34/20 A3008 RMK A01 T03430199  RH  043%=      5-min Rain = 0
KBI1 142007Z 05012KT 34/20 A3008 RMK A01 T03420196  RH  042%=      5-min Rain = 0
KBI1 142008Z 03010KT 34/20 A3008 RMK A01 T03410195  RH  042%=      5-min Rain = 0
KBI1 142009Z 04010KT 34/20 A3008 RMK A01 T03410195  RH  042%=      5-min Rain = 0
KBI1 142010Z 04012KT 34/19 A3008 RMK A01 T03410193  RH  042%=      5-min Rain = 0
KBI1 142011Z 04007KT 34/19 A3008 RMK A01 T03400193  RH  042%=      5-min Rain = 0
KBI1 142012Z 04007KT 34/19 A3008 RMK A01 T03400192  RH  042%=      5-min Rain = 0
KBI1 142013Z 03012KT 34/19 A3008 RMK A01 T03400190  RH  041%=      5-min Rain = 0
KBI1 142014Z 02012KT 34/19 A3008 RMK A01 T03410188  RH  041%=      5-min Rain = 0
KBI1 142015Z 03012KT 34/19 A3008 RMK A01 T03400188  RH  041%=      5-min Rain = 0
KBI1 142016Z 02008KT 34/19 A3008 RMK A01 T03370189  RH  042%=      5-min Rain = 0
KBI1 142017Z 02010KT 34/19 A3008 RMK A01 T03370189  RH  042%=      5-min Rain = 0
KBI1 142018Z 01008KT 34/19 A3008 RMK A01 T03380190  RH  042%=      5-min Rain = 0
KBI1 142019Z 01007G12KT 34/19 A3008 RMK A01 T03380190  RH  042%=      5-min Rain = 0
KBI1 142020Z 01006KT 34/19 A3008 RMK A01 T03360191  RH  042%=      5-min Rain = 0
KBI1 142021Z 05007KT 34/19 A3008 RMK A01 T03360191  RH  042%=      5-min Rain = 0
KBI1 142022Z 07008KT 34/19 A3008 RMK A01 T03370192  RH  042%=      5-min Rain = 0
KBI1 142023Z 07009KT 34/19 A3008 RMK A01 T03360193  RH  043%=      5-min Rain = 0
KBI1 142024Z 04010KT 34/19 A3008 RMK A01 T03350194  RH  044%=      5-min Rain = 0
KBI1 142025Z 04011KT 34/19 A3008 RMK A01 T03350193  RH  043%=      5-min Rain = 0
KBI1 142026Z 04011KT 33/19 A3008 RMK A01 T03340192  RH  043%=      5-min Rain = 0
KBI1 142027Z 05009KT 33/19 A3008 RMK A01 T03320192  RH  044%=      5-min Rain = 0
KBI1 142028Z 02005KT 33/19 A3008 RMK A01 T03320191  RH  043%=      5-min Rain = 0
KBI1 142029Z 05005KT 33/19 A3007 RMK A01 T03300191  RH  044%=      5-min Rain = 0
KBI1 142030Z 05006KT 33/19 A3007 RMK A01 T03290191  RH  044%=      5-min Rain = 0
KBI1 142031Z 04007KT 33/19 A3007 RMK A01 T03280191  RH  044%=      5-min Rain = 0
KBI1 142032Z 05007KT 33/19 A3007 RMK A01 T03280191  RH  045%=      5-min Rain = 0
KBI1 142033Z 05009KT 33/19 A3007 RMK A01 T03290191  RH  044%=      5-min Rain = 0
KBI1 142034Z 07007G12KT 33/19 A3007 RMK A01 T03310191  RH  044%=      5-min Rain = 0
KBI1 142035Z 08010KT 33/19 A3007 RMK A01 T03320188  RH  042%=      5-min Rain = 0
KBI1 142036Z 07006KT 33/19 A3007 RMK A01 T03320188  RH  042%=      5-min Rain = 0
KBI1 142037Z 07009KT 33/19 A3007 RMK A01 T03310188  RH  043%=      5-min Rain = 0
KBI1 142038Z 04011KT 33/19 A3007 RMK A01 T03300188  RH  043%=      5-min Rain = 0
KBI1 142039Z 06011KT 33/19 A3007 RMK A01 T03300187  RH  043%=      5-min Rain = 0
KBI1 142040Z 05011KT 33/19 A3007 RMK A01 T03310186  RH  042%=      5-min Rain = 0
KBI1 142041Z 04010KT 33/19 A3007 RMK A01 T03300187  RH  043%=      5-min Rain = 0
KBI1 142042Z 04009KT 33/19 A3007 RMK A01 T03290187  RH  043%=      5-min Rain = 0
KBI1 142043Z 06008KT 33/19 A3007 RMK A01 T03280187  RH  043%=      5-min Rain = 0
KBI1 142044Z 06007KT 33/19 A3007 RMK A01 T03280187  RH  043%=      5-min Rain = 0
KBI1 142045Z 06006KT 33/19 A3007 RMK A01 T03280187  RH  043%=      5-min Rain = 0
KBI1 142046Z 07010KT 33/19 A3007 RMK A01 T03290186  RH  043%=      5-min Rain = 0
KBI1 142047Z 05009KT 33/19 A3007 RMK A01 T03290185  RH  042%=      5-min Rain = 0
KBI1 142048Z 07008KT 33/19 A3007 RMK A01 T03290185  RH  043%=      5-min Rain = 0
KBI1 142049Z 07010KT 33/18 A3007 RMK A01 T03300184  RH  042%=      5-min Rain = 0
KBI1 142050Z 07009KT 33/18 A3007 RMK A01 T03310180  RH  041%=      5-min Rain = 0
KBI1 142051Z 07009KT 33/18 A3007 RMK A01 T03310179  RH  041%=      5-min Rain = 0
KBI1 142052Z 07007KT 33/18 A3007 RMK A01 T03320177  RH  040%=      5-min Rain = 0
KBI1 142053Z 05010KT 33/18 A3007 RMK A01 T03330180  RH  040%=      5-min Rain = 0
KBI1 142054Z 06011KT 33/18 A3007 RMK A01 T03330181  RH  040%=      5-min Rain = 0
KBI1 142055Z 04009KT 33/18 A3007 RMK A01 T03330182  RH  041%=      5-min Rain = 0
KBI1 142056Z 05010KT 33/18 A3007 RMK A01 T03320182  RH  041%=      5-min Rain = 0
KBI1 142057Z 06009KT 33/18 A3007 RMK A01 T03320181  RH  041%=      5-min Rain = 0
KBI1 142058Z 05009KT 33/18 A3007 RMK A01 T03330182  RH  041%=      5-min Rain = 0
KBI1 142059Z 06008KT 33/18 A3007 RMK A01 T03310182  RH  041%=      5-min Rain = 0
KBI1 142100Z 05007KT 33/18 A3007 RMK A01 T03300183  RH  042%=      5-min Rain = 0
KBI1 142101Z 04007KT 33/18 A3007 RMK A01 T03300184  RH  042%=      5-min Rain = 0
KBI1 142102Z 05006KT 33/18 A3007 RMK A01 T03300184  RH  042%=      5-min Rain = 0
KBI1 142103Z 07006KT 33/19 A3007 RMK A01 T03300185  RH  042%=      5-min Rain = 0
KBI1 142104Z 07007KT 33/19 A3007 RMK A01 T03300186  RH  043%=      5-min Rain = 0
KBI1 142105Z 06009KT 33/19 A3007 RMK A01 T03310187  RH  043%=      5-min Rain = 0
KBI1 142106Z 05007KT 33/19 A3007 RMK A01 T03300188  RH  043%=      5-min Rain = 0
KBI1 142107Z 05008KT 33/19 A3007 RMK A01 T03300189  RH  043%=      5-min Rain = 0
KBI1 142108Z 06007KT 33/19 A3007 RMK A01 T03300188  RH  043%=      5-min Rain = 0
KBI1 142109Z 07010KT 33/19 A3007 RMK A01 T03300186  RH  043%=      5-min Rain = 0
KBI1 142110Z 06008KT 33/19 A3007 RMK A01 T03300185  RH  042%=      5-min Rain = 0
KBI1 142111Z 08008KT 33/19 A3007 RMK A01 T03300185  RH  042%=      5-min Rain = 0
KBI1 142112Z 07008KT 33/19 A3007 RMK A01 T03310186  RH  042%=      5-min Rain = 0
KBI1 142113Z 06007KT 33/19 A3007 RMK A01 T03310185  RH  042%=      5-min Rain = 0
KBI1 142114Z 08006KT 33/19 A3007 RMK A01 T03310186  RH  042%=      5-min Rain = 0
KBI1 142115Z 08008KT 33/19 A3007 RMK A01 T03320186  RH  042%=      5-min Rain = 0
KBI1 142116Z 08009KT 33/19 A3007 RMK A01 T03310186  RH  042%=      5-min Rain = 0
KBI1 142117Z 08007KT 33/19 A3007 RMK A01 T03310187  RH  043%=      5-min Rain = 0
KBI1 142118Z 08007KT 33/19 A3007 RMK A01 T03310188  RH  043%=      5-min Rain = 0
KBI1 142119Z 08008KT 33/19 A3007 RMK A01 T03310188  RH  043%=      5-min Rain = 0
KBI1 142120Z 06009KT 33/19 A3007 RMK A01 T03310189  RH  043%=      5-min Rain = 0
KBI1 142121Z 07007KT 33/19 A3007 RMK A01 T03300189  RH  043%=      5-min Rain = 0
KBI1 142122Z 08006KT 33/19 A3007 RMK A01 T03300189  RH  043%=      5-min Rain = 0
KBI1 142123Z 08006KT 33/19 A3007 RMK A01 T03300188  RH  043%=      5-min Rain = 0
KBI1 142124Z 07006KT 33/19 A3007 RMK A01 T03310189  RH  043%=      5-min Rain = 0
KBI1 142125Z 08006KT 33/19 A3007 RMK A01 T03310190  RH  043%=      5-min Rain = 0
KBI1 142126Z 10007KT 33/19 A3007 RMK A01 T03310189  RH  043%=      5-min Rain = 0
KBI1 142127Z 10009KT 33/19 A3007 RMK A01 T03310189  RH  043%=      5-min Rain = 0
KBI1 142128Z 10006KT 33/19 A3007 RMK A01 T03300189  RH  043%=      5-min Rain = 0
KBI1 142129Z 10008KT 33/19 A3007 RMK A01 T03300190  RH  043%=      5-min Rain = 0
KBI1 142130Z 12009KT 33/19 A3007 RMK A01 T03300188  RH  043%=      5-min Rain = 0
KBI1 142131Z 12010KT 33/19 A3007 RMK A01 T03300188  RH  043%=      5-min Rain = 0
KBI1 142132Z 16012KT 33/19 A3008 RMK A01 T03290188  RH  043%=      5-min Rain = 0
KBI1 142133Z 17015KT 32/19 A3008 RMK A01 T03230187  RH  045%=      5-min Rain = 0
KBI1 142134Z 17018KT 31/19 A3008 RMK A01 T03090186  RH  048%=      5-min Rain = 0
KBI1 142135Z 17019KT 30/19 A3008 RMK A01 T03000185  RH  050%=      5-min Rain = 0
KBI1 142136Z 18014KT 30/19 A3008 RMK A01 T02950186  RH  052%=      5-min Rain = 0
KBI1 142137Z 17018G24KT 29/19 A3008 RMK A01 T02930186  RH  053%=      5-min Rain = 0
KBI1 142138Z 19019KT 29/19 A3008 RMK A01 T02900185  RH  053%=      5-min Rain = 0
KBI1 142139Z 18016KT 29/19 A3009 RMK A01 T02870185  RH  054%=      5-min Rain = 0
KBI1 142140Z 18018KT 29/19 A3008 RMK A01 T02860185  RH  054%=      5-min Rain = 0
KBI1 142141Z 18017G22KT 29/18 A3009 RMK A01 T02850184  RH  054%=      5-min Rain = 0
KBI1 142142Z 18018KT 29/18 A3009 RMK A01 T02850184  RH  054%=      5-min Rain = 0
KBI1 142143Z 17016KT 28/18 A3009 RMK A01 T02840184  RH  055%=      5-min Rain = 0
KBI1 142144Z 18015G20KT 28/18 A3009 RMK A01 T02840184  RH  055%=      5-min Rain = 0
KBI1 142145Z 19012G17KT 28/18 A3009 RMK A01 T02840184  RH  055%=      5-min Rain = 0
KBI1 142146Z 19015G20KT 28/18 A3009 RMK A01 T02840184  RH  055%=      5-min Rain = 0
KBI1 142147Z 19014KT 28/18 A3009 RMK A01 T02840184  RH  055%=      5-min Rain = 0
KBI1 142148Z 18011KT 28/18 A3009 RMK A01 T02840184  RH  055%=      5-min Rain = 0
KBI1 142149Z 19013KT 29/19 A3009 RMK A01 T02850185  RH  055%=      5-min Rain = 0
KBI1 142150Z 19012KT 29/19 A3009 RMK A01 T02850185  RH  055%=      5-min Rain = 0
KBI1 142151Z 19012KT 29/19 A3009 RMK A01 T02850185  RH  055%=      5-min Rain = 0
KBI1 142152Z 19014KT 29/19 A3009 RMK A01 T02850186  RH  055%=      5-min Rain = 0
KBI1 142153Z 19014KT 28/19 A3009 RMK A01 T02830185  RH  055%=      5-min Rain = 0
KBI1 142154Z 19015KT 28/19 A3009 RMK A01 T02820185  RH  055%=      5-min Rain = 0
KBI1 142155Z 19014KT 28/18 A3009 RMK A01 T02810184  RH  056%=      5-min Rain = 0
KBI1 142156Z 19015KT 28/18 A3009 RMK A01 T02800184  RH  056%=      5-min Rain = 0
KBI1 142157Z 19012KT 28/19 A3009 RMK A01 T02800185  RH  056%=      5-min Rain = 0
KBI1 142158Z 20015KT 28/19 A301 RMK A01 T02790185  RH  056%=      5-min Rain = 0
KBI1 142159Z 19015G20KT 28/19 A3009 RMK A01 T02790185  RH  056%=      5-min Rain = 0
KBI1 142200Z 19017KT 28/18 A3009 RMK A01 T02780184  RH  057%=      5-min Rain = 0
KBI1 142201Z 19014KT 28/19 A301 RMK A01 T02770185  RH  057%=      5-min Rain = 0
KBI1 142202Z 19013KT 28/19 A3009 RMK A01 T02770185  RH  057%=      5-min Rain = 0
KBI1 142203Z 19011G16KT 28/19 A301 RMK A01 T02770186  RH  058%=      5-min Rain = 0
KBI1 142204Z 19014KT 28/19 A3009 RMK A01 T02770186  RH  058%=      5-min Rain = 0
KBI1 142205Z 19016KT 28/19 A3009 RMK A01 T02760186  RH  058%=      5-min Rain = 0
KBI1 142206Z 20017KT 28/19 A3009 RMK A01 T02750186  RH  058%=      5-min Rain = 0
KBI1 142207Z 19017KT 27/19 A3009 RMK A01 T02730186  RH  059%=      5-min Rain = 0
KBI1 142208Z 19014KT 27/19 A3009 RMK A01 T02720187  RH  059%=      5-min Rain = 0
KBI1 142209Z 19015G20KT 27/19 A3009 RMK A01 T02720187  RH  060%=      5-min Rain = 0
KBI1 142210Z 19011G16KT 27/19 A3009 RMK A01 T02720188  RH  060%=      5-min Rain = 0
KBI1 142211Z 20014G22KT 27/19 A3009 RMK A01 T02720188  RH  060%=      5-min Rain = 0
KBI1 142212Z 19017KT 27/19 A3009 RMK A01 T02710187  RH  060%=      5-min Rain = 0
KBI1 142213Z 18017G22KT 27/19 A3009 RMK A01 T02700187  RH  060%=      5-min Rain = 0
KBI1 142214Z 19015KT 27/19 A3009 RMK A01 T02690186  RH  060%=      5-min Rain = 0
KBI1 142215Z 19016KT 27/19 A3009 RMK A01 T02690187  RH  061%=      5-min Rain = 0
KBI1 142216Z 20013KT 27/19 A3009 RMK A01 T02690187  RH  061%=      5-min Rain = 0
KBI1 142217Z 20012KT 27/19 A3009 RMK A01 T02700187  RH  060%=      5-min Rain = 0
KBI1 142218Z 20015KT 27/19 A3009 RMK A01 T02700187  RH  060%=      5-min Rain = 0
KBI1 142219Z 20013KT 27/19 A3008 RMK A01 T02700187  RH  060%=      5-min Rain = 0
KBI1 142220Z 20013KT 27/19 A3008 RMK A01 T02710187  RH  060%=      5-min Rain = 0
KBI1 142221Z 21015KT 27/19 A3008 RMK A01 T02700187  RH  060%=      5-min Rain = 0
KBI1 142222Z 20015KT 27/19 A3008 RMK A01 T02710188  RH  060%=      5-min Rain = 0
KBI1 142223Z 20015KT 27/19 A3008 RMK A01 T02700188  RH  061%=      5-min Rain = 0
KBI1 142224Z 21014G19KT 27/19 A3008 RMK A01 T02690187  RH  061%=      5-min Rain = 0
KBI1 142225Z 20013KT 27/19 A3008 RMK A01 T02690188  RH  061%=      5-min Rain = 0
KBI1 142226Z 20012KT 27/19 A3008 RMK A01 T02680188  RH  061%=      5-min Rain = 0
KBI1 142227Z 19011KT 27/19 A3008 RMK A01 T02680188  RH  061%=      5-min Rain = 0
KBI1 142228Z 20012KT 27/19 A3008 RMK A01 T02690188  RH  061%=      5-min Rain = 0
KBI1 142229Z 20011KT 27/19 A3008 RMK A01 T02700188  RH  061%=      5-min Rain = 0
KBI1 142230Z 21011KT 27/19 A3008 RMK A01 T02700188  RH  061%=      5-min Rain = 0
KBI1 142231Z 20010KT 27/19 A3008 RMK A01 T02690188  RH  061%=      5-min Rain = 0
KBI1 142232Z 19010G16KT 27/19 A3008 RMK A01 T02690188  RH  061%=      5-min Rain = 0
KBI1 142233Z 20011KT 27/19 A3008 RMK A01 T02700188  RH  061%=      5-min Rain = 0
KBI1 142234Z 20013KT 27/19 A3008 RMK A01 T02700187  RH  060%=      5-min Rain = 0
KBI1 142235Z 20014KT 27/19 A3008 RMK A01 T02700187  RH  060%=      5-min Rain = 0
KBI1 142236Z 20012KT 27/19 A3008 RMK A01 T02690186  RH  060%=      5-min Rain = 0
KBI1 142237Z 20009KT 27/19 A3008 RMK A01 T02690186  RH  060%=      5-min Rain = 0
KBI1 142238Z 21010KT 27/19 A3008 RMK A01 T02700187  RH  060%=      5-min Rain = 0
KBI1 142239Z 22011KT 27/19 A3008 RMK A01 T02710186  RH  060%=      5-min Rain = 0
KBI1 142240Z 21013KT 27/19 A3008 RMK A01 T02700185  RH  060%=      5-min Rain = 0
KBI1 142241Z 21012KT 27/19 A3008 RMK A01 T02690185  RH  060%=      5-min Rain = 0
KBI1 142242Z 20011KT 27/19 A3008 RMK A01 T02690186  RH  060%=      5-min Rain = 0
KBI1 142243Z 21014KT 27/19 A3007 RMK A01 T02690185  RH  060%=      5-min Rain = 0
KBI1 142244Z 20012KT 27/19 A3007 RMK A01 T02680185  RH  060%=      5-min Rain = 0
KBI1 142245Z 20013KT 27/19 A3007 RMK A01 T02680185  RH  060%=      5-min Rain = 0
KBI1 142246Z 20013KT 27/19 A3007 RMK A01 T02670185  RH  060%=      5-min Rain = 0
KBI1 142247Z 20014KT 27/19 A3008 RMK A01 T02670185  RH  060%=      5-min Rain = 0
KBI1 142248Z 20012KT 27/18 A3008 RMK A01 T02670184  RH  060%=      5-min Rain = 0
KBI1 142249Z 20011KT 27/19 A3008 RMK A01 T02670185  RH  061%=      5-min Rain = 0
KBI1 142250Z 19008KT 27/19 A3008 RMK A01 T02670185  RH  061%=      5-min Rain = 0
KBI1 142251Z 20009KT 27/19 A3008 RMK A01 T02680185  RH  060%=      5-min Rain = 0
KBI1 142252Z 20011KT 27/19 A3008 RMK A01 T02680185  RH  060%=      5-min Rain = 0
KBI1 142253Z 21012KT 27/19 A3008 RMK A01 T02680185  RH  061%=      5-min Rain = 0
KBI1 142254Z 19009G16KT 27/19 A3008 RMK A01 T02680186  RH  061%=      5-min Rain = 0
KBI1 142255Z 20014KT 27/19 A3008 RMK A01 T02680185  RH  061%=      5-min Rain = 0
KBI1 142256Z 20013KT 27/19 A3008 RMK A01 T02670185  RH  061%=      5-min Rain = 0
KBI1 142257Z 20011KT 27/19 A3008 RMK A01 T02660185  RH  061%=      5-min Rain = 0
KBI1 142258Z 19011KT 27/19 A3008 RMK A01 T02660186  RH  061%=      5-min Rain = 0
KBI1 142259Z 19013KT 27/19 A3008 RMK A01 T02650185  RH  061%=      5-min Rain = 0
KBI1 142300Z 19011KT 27/19 A3007 RMK A01 T02650185  RH  061%=      5-min Rain = 0
KBI1 142301Z 19012KT 27/18 A3007 RMK A01 T02650184  RH  061%=      5-min Rain = 0
KBI1 142302Z 19011KT 26/18 A3007 RMK A01 T02640183  RH  061%=      5-min Rain = 0
KBI1 142303Z 19009KT 27/18 A3007 RMK A01 T02650184  RH  061%=      5-min Rain = 0
KBI1 142304Z 19009KT 27/18 A3007 RMK A01 T02650183  RH  061%=      5-min Rain = 0
KBI1 142305Z 20012KT 27/18 A3007 RMK A01 T02650183  RH  061%=      5-min Rain = 0
KBI1 142306Z 20010KT 27/18 A3007 RMK A01 T02650182  RH  060%=      5-min Rain = 0
KBI1 142307Z 19009KT 27/18 A3007 RMK A01 T02650182  RH  060%=      5-min Rain = 0
KBI1 142308Z 20009KT 27/18 A3007 RMK A01 T02650183  RH  061%=      5-min Rain = 0
KBI1 142309Z 20009KT 27/18 A3007 RMK A01 T02650183  RH  061%=      5-min Rain = 0
KBI1 142310Z 20012KT 27/18 A3007 RMK A01 T02650183  RH  061%=      5-min Rain = 0
KBI1 142311Z 20011KT 27/18 A3007 RMK A01 T02650184  RH  061%=      5-min Rain = 0
KBI1 142312Z 20009KT 26/18 A3007 RMK A01 T02640184  RH  061%=      5-min Rain = 0
KBI1 142313Z 20011KT 27/18 A3007 RMK A01 T02650184  RH  061%=      5-min Rain = 0
KBI1 142314Z 20011KT 27/18 A3007 RMK A01 T02650184  RH  061%=      5-min Rain = 0
KBI1 142315Z 20010KT 27/18 A3006 RMK A01 T02650184  RH  061%=      5-min Rain = 0
KBI1 142316Z 20008KT 27/18 A3006 RMK A01 T02650184  RH  061%=      5-min Rain = 0
KBI1 142317Z 20010KT 27/18 A3006 RMK A01 T02650184  RH  061%=      5-min Rain = 0
KBI1 142318Z 21009KT 27/18 A3006 RMK A01 T02650184  RH  061%=      5-min Rain = 0
KBI1 142319Z 20010KT 27/18 A3006 RMK A01 T02650184  RH  061%=      5-min Rain = 0
KBI1 142320Z 18009KT 27/18 A3006 RMK A01 T02650184  RH  061%=      5-min Rain = 0
KBI1 142321Z 19008KT 26/18 A3006 RMK A01 T02640184  RH  061%=      5-min Rain = 0
KBI1 142322Z 19007KT 26/18 A3006 RMK A01 T02640184  RH  061%=      5-min Rain = 0
KBI1 142323Z 20008KT 27/18 A3006 RMK A01 T02650184  RH  061%=      5-min Rain = 0
KBI1 142324Z 20009KT 27/18 A3005 RMK A01 T02650184  RH  061%=      5-min Rain = 0
KBI1 142325Z 20007KT 27/18 A3005 RMK A01 T02650184  RH  061%=      5-min Rain = 0
KBI1 142326Z 20008KT 27/18 A3005 RMK A01 T02650184  RH  061%=      5-min Rain = 0
KBI1 142327Z 21008KT 27/19 A3005 RMK A01 T02660185  RH  061%=      5-min Rain = 0
KBI1 142328Z 20008KT 27/19 A3005 RMK A01 T02660185  RH  061%=      5-min Rain = 0
KBI1 142329Z 20007KT 27/18 A3005 RMK A01 T02660184  RH  061%=      5-min Rain = 0
KBI1 142330Z 20008KT 27/19 A3005 RMK A01 T02660185  RH  061%=      5-min Rain = 0
KBI1 142331Z 21008KT 27/19 A3005 RMK A01 T02670185  RH  061%=      5-min Rain = 0
KBI1 142332Z 21007KT 27/19 A3005 RMK A01 T02660185  RH  061%=      5-min Rain = 0
KBI1 142333Z 22007KT 27/19 A3006 RMK A01 T02660185  RH  061%=      5-min Rain = 0
KBI1 142334Z 21009KT 27/19 A3006 RMK A01 T02670186  RH  061%=      5-min Rain = 0
KBI1 142335Z 21009KT 27/19 A3006 RMK A01 T02670186  RH  061%=      5-min Rain = 0
KBI1 142336Z 21006KT 27/19 A3006 RMK A01 T02650186  RH  062%=      5-min Rain = 0
KBI1 142337Z 21008KT 27/19 A3006 RMK A01 T02660186  RH  062%=      5-min Rain = 0
KBI1 142338Z 21008KT 27/19 A3006 RMK A01 T02660186  RH  062%=      5-min Rain = 0
KBI1 142339Z 20008KT 27/19 A3006 RMK A01 T02660187  RH  062%=      5-min Rain = 0
KBI1 142340Z 20006KT 27/19 A3005 RMK A01 T02660187  RH  062%=      5-min Rain = 0
KBI1 142341Z 20009KT 27/19 A3005 RMK A01 T02660185  RH  061%=      5-min Rain = 0
KBI1 142342Z 20010KT 27/18 A3005 RMK A01 T02650184  RH  061%=      5-min Rain = 0
KBI1 142343Z 20008KT 27/18 A3005 RMK A01 T02650184  RH  061%=      5-min Rain = 0
KBI1 142344Z 20007KT 27/18 A3005 RMK A01 T02650184  RH  061%=      5-min Rain = 0
KBI1 142345Z 20007KT 26/18 A3005 RMK A01 T02640184  RH  061%=      5-min Rain = 0
KBI1 142346Z 18006KT 27/19 A3005 RMK A01 T02650185  RH  061%=      5-min Rain = 0
KBI1 142347Z 18009KT 27/19 A3005 RMK A01 T02660185  RH  061%=      5-min Rain = 0
KBI1 142348Z 19007KT 27/18 A3005 RMK A01 T02670184  RH  061%=      5-min Rain = 0
KBI1 142349Z 19007KT 27/18 A3005 RMK A01 T02660184  RH  061%=      5-min Rain = 0
KBI1 142350Z 19007KT 27/18 A3005 RMK A01 T02660184  RH  061%=      5-min Rain = 0
KBI1 142351Z 19006KT 27/18 A3005 RMK A01 T02660184  RH  061%=      5-min Rain = 0
KBI1 142352Z 19007KT 27/18 A3005 RMK A01 T02660184  RH  061%=      5-min Rain = 0
KBI1 142353Z 19008KT 27/18 A3005 RMK A01 T02660184  RH  061%=      5-min Rain = 0
KBI1 142354Z 19007KT 27/18 A3005 RMK A01 T02660183  RH  060%=      5-min Rain = 0
KBI1 142355Z 19008KT 27/18 A3005 RMK A01 T02650183  RH  061%=      5-min Rain = 0
KBI1 142356Z 19007KT 27/18 A3005 RMK A01 T02650183  RH  061%=      5-min Rain = 0
KBI1 142357Z 19007KT 27/18 A3005 RMK A01 T02650184  RH  061%=      5-min Rain = 0
KBI1 142358Z 20008KT 27/18 A3005 RMK A01 T02650183  RH  061%=      5-min Rain = 0
KBI1 142359Z 20008KT 27/18 A3005 RMK A01 T02650183  RH  061%=      5-min Rain = 0
KBI1 150000Z 20007KT 27/18 A3005 RMK A01 T02650183  RH  061%=      5-min Rain = 0
KBI1 150001Z 19006KT 27/18 A3005 RMK A01 T02650183  RH  061%=      5-min Rain = 0
KBI1 150002Z 19007KT 27/18 A3005 RMK A01 T02660183  RH  061%=      5-min Rain = 0
KBI1 150003Z 19007KT 27/18 A3005 RMK A01 T02660183  RH  061%=      5-min Rain = 0
KBI1 150004Z 19007KT 27/18 A3004 RMK A01 T02660183  RH  061%=      5-min Rain = 0
KBI1 150005Z 20008KT 27/18 A3004 RMK A01 T02660183  RH  060%=      5-min Rain = 0
KBI1 150006Z 19008KT 27/18 A3004 RMK A01 T02660183  RH  060%=      5-min Rain = 0
KBI1 150007Z 19008KT 27/18 A3004 RMK A01 T02660182  RH  060%=      5-min Rain = 0
KBI1 150008Z 18007KT 27/18 A3005 RMK A01 T02670183  RH  060%=      5-min Rain = 0
KBI1 150009Z 18007KT 27/18 A3005 RMK A01 T02660183  RH  060%=      5-min Rain = 0
KBI1 150010Z 18009KT 27/18 A3005 RMK A01 T02660182  RH  060%=      5-min Rain = 0
KBI1 150011Z 19009KT 27/18 A3005 RMK A01 T02660182  RH  060%=      5-min Rain = 0
KBI1 150012Z 19008KT 27/18 A3005 RMK A01 T02660182  RH  060%=      5-min Rain = 0
KBI1 150013Z 19009KT 27/18 A3005 RMK A01 T02660183  RH  060%=      5-min Rain = 0
KBI1 150014Z 19008KT 27/18 A3005 RMK A01 T02650184  RH  061%=      5-min Rain = 0
KBI1 150015Z 19010KT 27/18 A3005 RMK A01 T02650184  RH  061%=      5-min Rain = 0
KBI1 150016Z 18009KT 27/18 A3005 RMK A01 T02650184  RH  061%=      5-min Rain = 0
KBI1 150017Z 18009KT 26/18 A3005 RMK A01 T02640184  RH  061%=      5-min Rain = 0
KBI1 150018Z 19009KT 26/18 A3005 RMK A01 T02640184  RH  061%=      5-min Rain = 0
KBI1 150019Z 18008KT 26/18 A3005 RMK A01 T02640184  RH  061%=      5-min Rain = 0
KBI1 150020Z 19009KT 26/19 A3005 RMK A01 T02640185  RH  062%=      5-min Rain = 0
KBI1 150021Z 19008KT 26/19 A3005 RMK A01 T02640185  RH  062%=      5-min Rain = 0
KBI1 150022Z 18009KT 26/18 A3005 RMK A01 T02640184  RH  062%=      5-min Rain = 0
KBI1 150023Z 18009KT 26/18 A3005 RMK A01 T02640184  RH  062%=      5-min Rain = 0
KBI1 150024Z 19008KT 26/18 A3005 RMK A01 T02630183  RH  061%=      5-min Rain = 0
KBI1 150025Z 19008KT 26/18 A3005 RMK A01 T02630183  RH  061%=      5-min Rain = 0
KBI1 150026Z 19007KT 26/18 A3005 RMK A01 T02630183  RH  061%=      5-min Rain = 0
KBI1 150027Z 19007KT 26/18 A3005 RMK A01 T02630183  RH  061%=      5-min Rain = 0
KBI1 150028Z 19008KT 26/18 A3005 RMK A01 T02630182  RH  061%=      5-min Rain = 0
KBI1 150029Z 19007KT 26/18 A3005 RMK A01 T02630183  RH  061%=      5-min Rain = 0
KBI1 150030Z 18006KT 26/18 A3005 RMK A01 T02630184  RH  062%=      5-min Rain = 0
KBI1 150031Z 19007KT 26/18 A3005 RMK A01 T02630184  RH  062%=      5-min Rain = 0
KBI1 150032Z 19008KT 26/18 A3005 RMK A01 T02630183  RH  061%=      5-min Rain = 0
KBI1 150033Z 19006KT 26/18 A3005 RMK A01 T02620183  RH  062%=      5-min Rain = 0
KBI1 150034Z 20006KT 26/18 A3005 RMK A01 T02620183  RH  062%=      5-min Rain = 0
KBI1 150035Z 20007KT 26/18 A3005 RMK A01 T02620182  RH  061%=      5-min Rain = 0
KBI1 150036Z 19006KT 26/18 A3005 RMK A01 T02630182  RH  061%=      5-min Rain = 0
KBI1 150037Z 19005KT 26/18 A3005 RMK A01 T02630182  RH  061%=      5-min Rain = 0
KBI1 150038Z 18005KT 26/18 A3005 RMK A01 T02630182  RH  061%=      5-min Rain = 0
KBI1 150039Z 19006KT 26/18 A3005 RMK A01 T02640182  RH  061%=      5-min Rain = 0
KBI1 150040Z 19006KT 26/18 A3005 RMK A01 T02640182  RH  061%=      5-min Rain = 0
KBI1 150041Z 19005KT 26/18 A3005 RMK A01 T02640182  RH  061%=      5-min Rain = 0
KBI1 150042Z 19005KT 26/18 A3005 RMK A01 T02640182  RH  061%=      5-min Rain = 0
KBI1 150043Z 19005KT 26/18 A3005 RMK A01 T02640182  RH  061%=      5-min Rain = 0
KBI1 150044Z 20005KT 26/18 A3005 RMK A01 T02640182  RH  061%=      5-min Rain = 0
KBI1 150045Z 21006KT 26/18 A3005 RMK A01 T02640182  RH  061%=      5-min Rain = 0
KBI1 150046Z 21007KT 26/18 A3005 RMK A01 T02640181  RH  061%=      5-min Rain = 0
KBI1 150047Z 21007KT 26/18 A3005 RMK A01 T02640181  RH  060%=      5-min Rain = 0
KBI1 150048Z 21007KT 26/18 A3005 RMK A01 T02630179  RH  060%=      5-min Rain = 0
KBI1 150049Z 20006KT 26/18 A3006 RMK A01 T02640178  RH  059%=      5-min Rain = 0
KBI1 150050Z 21007KT 26/18 A3006 RMK A01 T02640178  RH  059%=      5-min Rain = 0
KBI1 150051Z 20006KT 26/18 A3006 RMK A01 T02640178  RH  059%=      5-min Rain = 0
KBI1 150052Z 19006KT 27/18 A3006 RMK A01 T02650178  RH  059%=      5-min Rain = 0
KBI1 150053Z 19005KT 27/18 A3006 RMK A01 T02650178  RH  059%=      5-min Rain = 0
KBI1 150054Z 20005KT 27/18 A3006 RMK A01 T02650178  RH  059%=      5-min Rain = 0
KBI1 150055Z 19005KT 26/18 A3006 RMK A01 T02640177  RH  059%=      5-min Rain = 0
KBI1 150056Z 19005KT 27/18 A3006 RMK A01 T02650177  RH  059%=      5-min Rain = 0
KBI1 150057Z 20005KT 27/18 A3006 RMK A01 T02650177  RH  059%=      5-min Rain = 0
KBI1 150058Z 20006KT 26/18 A3006 RMK A01 T02640177  RH  059%=      5-min Rain = 0
KBI1 150059Z 20004KT 26/18 A3006 RMK A01 T02640176  RH  059%=      5-min Rain = 0
KBI1 150100Z 20005KT 26/18 A3006 RMK A01 T02640177  RH  059%=      5-min Rain = 0
KBI1 150101Z 20004KT 26/18 A3006 RMK A01 T02640177  RH  059%=      5-min Rain = 0
KBI1 150102Z 20004KT 26/18 A3006 RMK A01 T02640177  RH  059%=      5-min Rain = 0
KBI1 150103Z 20004KT 26/18 A3006 RMK A01 T02640177  RH  059%=      5-min Rain = 0
KBI1 150104Z 20005KT 26/18 A3006 RMK A01 T02640176  RH  058%=      5-min Rain = 0
KBI1 150105Z 21004KT 26/18 A3006 RMK A01 T02640176  RH  058%=      5-min Rain = 0
KBI1 150106Z 20005KT 26/18 A3006 RMK A01 T02640176  RH  058%=      5-min Rain = 0
KBI1 150107Z 20005KT 26/18 A3006 RMK A01 T02640175  RH  058%=      5-min Rain = 0
KBI1 150108Z 20004KT 26/18 A3006 RMK A01 T02640175  RH  058%=      5-min Rain = 0
KBI1 150109Z 20004KT 26/18 A3006 RMK A01 T02640175  RH  058%=      5-min Rain = 0
KBI1 150110Z 20005KT 26/18 A3006 RMK A01 T02640175  RH  058%=      5-min Rain = 0
KBI1 150111Z 21004KT 26/18 A3006 RMK A01 T02640175  RH  058%=      5-min Rain = 0
KBI1 150112Z 21005KT 26/18 A3006 RMK A01 T02640175  RH  058%=      5-min Rain = 0
KBI1 150113Z 21005KT 26/18 A3006 RMK A01 T02640175  RH  058%=      5-min Rain = 0
KBI1 150114Z 21006KT 26/18 A3006 RMK A01 T02640175  RH  058%=      5-min Rain = 0
KBI1 150115Z 21005KT 26/18 A3006 RMK A01 T02640175  RH  058%=      5-min Rain = 0
KBI1 150116Z 21004KT 26/18 A3006 RMK A01 T02640175  RH  058%=      5-min Rain = 0
KBI1 150117Z 20005KT 26/18 A3006 RMK A01 T02640175  RH  058%=      5-min Rain = 0
KBI1 150118Z 20004KT 26/17 A3007 RMK A01 T02640174  RH  058%=      5-min Rain = 0
KBI1 150119Z 19004KT 26/18 A3007 RMK A01 T02640175  RH  058%=      5-min Rain = 0
KBI1 150120Z 19004KT 26/17 A3007 RMK A01 T02640174  RH  058%=      5-min Rain = 0
KBI1 150121Z 19005KT 26/17 A3007 RMK A01 T02630174  RH  058%=      5-min Rain = 0
KBI1 150122Z 20004KT 26/17 A3007 RMK A01 T02630174  RH  058%=      5-min Rain = 0
KBI1 150123Z 20005KT 26/17 A3007 RMK A01 T02630174  RH  058%=      5-min Rain = 0
KBI1 150124Z 20005KT 26/17 A3007 RMK A01 T02630174  RH  058%=      5-min Rain = 0
KBI1 150125Z 20005KT 26/17 A3007 RMK A01 T02630173  RH  058%=      5-min Rain = 0
KBI1 150126Z 20005KT 26/17 A3007 RMK A01 T02630173  RH  058%=      5-min Rain = 0
KBI1 150127Z 19005KT 26/17 A3007 RMK A01 T02630173  RH  058%=      5-min Rain = 0
KBI1 150128Z 19005KT 26/17 A3007 RMK A01 T02630173  RH  058%=      5-min Rain = 0
KBI1 150129Z 19005KT 26/17 A3007 RMK A01 T02620173  RH  058%=      5-min Rain = 0
KBI1 150130Z 18005KT 26/17 A3007 RMK A01 T02620173  RH  058%=      5-min Rain = 0
KBI1 150131Z 18006KT 26/17 A3007 RMK A01 T02610173  RH  058%=      5-min Rain = 0
KBI1 150132Z 18006KT 26/17 A3007 RMK A01 T02610173  RH  058%=      5-min Rain = 0
KBI1 150133Z 19005KT 26/17 A3007 RMK A01 T02610173  RH  058%=      5-min Rain = 0
KBI1 150134Z 19005KT 26/17 A3007 RMK A01 T02600173  RH  059%=      5-min Rain = 0
KBI1 150135Z 19005KT 26/17 A3007 RMK A01 T02600173  RH  059%=      5-min Rain = 0
KBI1 150136Z 19004KT 26/17 A3007 RMK A01 T02610173  RH  058%=      5-min Rain = 0
KBI1 150137Z 19004KT 26/17 A3007 RMK A01 T02600173  RH  058%=      5-min Rain = 0
KBI1 150138Z 19004KT 26/17 A3007 RMK A01 T02600172  RH  058%=      5-min Rain = 0
KBI1 150139Z 19004KT 26/17 A3007 RMK A01 T02600173  RH  059%=      5-min Rain = 0
KBI1 150140Z 19004KT 26/17 A3007 RMK A01 T02600173  RH  059%=      5-min Rain = 0
KBI1 150141Z 19005KT 26/17 A3007 RMK A01 T02590172  RH  059%=      5-min Rain = 0
KBI1 150142Z 19004KT 26/17 A3007 RMK A01 T02580172  RH  059%=      5-min Rain = 0
KBI1 150143Z 20004KT 26/17 A3007 RMK A01 T02580172  RH  059%=      5-min Rain = 0
KBI1 150144Z 19004KT 26/17 A3007 RMK A01 T02580172  RH  059%=      5-min Rain = 0
KBI1 150145Z 19004KT 26/17 A3008 RMK A01 T02580172  RH  059%=      5-min Rain = 0
KBI1 150146Z 18005KT 26/17 A3008 RMK A01 T02580172  RH  059%=      5-min Rain = 0
KBI1 150147Z 18004KT 26/17 A3008 RMK A01 T02580172  RH  059%=      5-min Rain = 0
KBI1 150148Z 18005KT 26/17 A3008 RMK A01 T02580172  RH  059%=      5-min Rain = 0
KBI1 150149Z 18005KT 26/17 A3008 RMK A01 T02570172  RH  059%=      5-min Rain = 0
KBI1 150150Z 18005KT 26/17 A3008 RMK A01 T02570172  RH  059%=      5-min Rain = 0
KBI1 150151Z 17004KT 26/17 A3008 RMK A01 T02570172  RH  059%=      5-min Rain = 0
KBI1 150152Z 17004KT 26/17 A3008 RMK A01 T02570172  RH  059%=      5-min Rain = 0
KBI1 150153Z 17004KT 26/17 A3008 RMK A01 T02570173  RH  060%=      5-min Rain = 0
KBI1 150154Z 17004KT 26/17 A3008 RMK A01 T02570173  RH  060%=      5-min Rain = 0
KBI1 150155Z 17004KT 26/17 A3008 RMK A01 T02570173  RH  060%=      5-min Rain = 0
KBI1 150156Z 18005KT 26/17 A3008 RMK A01 T02560173  RH  060%=      5-min Rain = 0
KBI1 150157Z 18004KT 26/17 A3008 RMK A01 T02560173  RH  060%=      5-min Rain = 0
KBI1 150158Z 18005KT 26/17 A3008 RMK A01 T02560172  RH  060%=      5-min Rain = 0
KBI1 150159Z 18003KT 26/17 A3008 RMK A01 T02560172  RH  060%=      5-min Rain = 0
KBI1 150200Z 18004KT 26/17 A3008 RMK A01 T02550172  RH  060%=      5-min Rain = 0
KBI1 150201Z 18004KT 26/17 A3008 RMK A01 T02550172  RH  060%=      5-min Rain = 0
KBI1 150202Z 18004KT 25/17 A3008 RMK A01 T02540172  RH  060%=      5-min Rain = 0
KBI1 150203Z 17004KT 25/17 A3008 RMK A01 T02540172  RH  060%=      5-min Rain = 0
KBI1 150204Z 17003KT 25/17 A3008 RMK A01 T02540172  RH  061%=      5-min Rain = 0
KBI1 150205Z 17004KT 25/17 A3008 RMK A01 T02540172  RH  061%=      5-min Rain = 0
KBI1 150206Z 17005KT 25/17 A3008 RMK A01 T02530172  RH  061%=      5-min Rain = 0
KBI1 150207Z 17004KT 25/17 A3008 RMK A01 T02530172  RH  061%=      5-min Rain = 0
KBI1 150208Z 17005KT 25/17 A3008 RMK A01 T02530172  RH  061%=      5-min Rain = 0
KBI1 150209Z 17004KT 25/17 A3008 RMK A01 T02530172  RH  061%=      5-min Rain = 0
KBI1 150210Z 16004KT 25/17 A3008 RMK A01 T02530172  RH  061%=      5-min Rain = 0
KBI1 150211Z 16004KT 25/17 A3008 RMK A01 T02530172  RH  061%=      5-min Rain = 0
KBI1 150212Z 17003KT 25/17 A3008 RMK A01 T02530172  RH  061%=      5-min Rain = 0
KBI1 150213Z 17004KT 25/17 A3008 RMK A01 T02530172  RH  061%=      5-min Rain = 0
KBI1 150214Z 16004KT 25/17 A3008 RMK A01 T02530172  RH  061%=      5-min Rain = 0
KBI1 150215Z 17004KT 25/17 A3008 RMK A01 T02530172  RH  061%=      5-min Rain = 0
KBI1 150216Z 16003KT 25/17 A3008 RMK A01 T02530172  RH  061%=      5-min Rain = 0
KBI1 150217Z 16003KT 25/17 A3008 RMK A01 T02530173  RH  061%=      5-min Rain = 0
KBI1 150218Z 16002KT 25/17 A3008 RMK A01 T02530173  RH  061%=      5-min Rain = 0
KBI1 150219Z 16004KT 25/17 A3009 RMK A01 T02530173  RH  061%=      5-min Rain = 0
KBI1 150220Z 17003KT 25/17 A3009 RMK A01 T02530174  RH  061%=      5-min Rain = 0
KBI1 150221Z 17003KT 25/17 A3009 RMK A01 T02530174  RH  062%=      5-min Rain = 0
KBI1 150222Z 17003KT 25/17 A3009 RMK A01 T02530174  RH  062%=      5-min Rain = 0
KBI1 150223Z 18003KT 25/17 A3009 RMK A01 T02530174  RH  062%=      5-min Rain = 0
KBI1 150224Z 18003KT 25/17 A3009 RMK A01 T02530174  RH  062%=      5-min Rain = 0
KBI1 150225Z 18003KT 25/18 A3009 RMK A01 T02530175  RH  062%=      5-min Rain = 0
KBI1 150226Z 18003KT 25/17 A3009 RMK A01 T02520174  RH  062%=      5-min Rain = 0
KBI1 150227Z 18003KT 25/17 A301 RMK A01 T02520174  RH  062%=      5-min Rain = 0
KBI1 150228Z 18003KT 25/17 A301 RMK A01 T02510174  RH  062%=      5-min Rain = 0
KBI1 150229Z 17003KT 25/17 A301 RMK A01 T02510174  RH  063%=      5-min Rain = 0
KBI1 150230Z 17003KT 25/18 A301 RMK A01 T02500175  RH  063%=      5-min Rain = 0
KBI1 150231Z 17004KT 25/18 A301 RMK A01 T02490175  RH  064%=      5-min Rain = 0
KBI1 150232Z 18003KT 25/18 A301 RMK A01 T02480176  RH  064%=      5-min Rain = 0
KBI1 150233Z 18003KT 25/18 A301 RMK A01 T02480176  RH  064%=      5-min Rain = 0
KBI1 150234Z 18003KT 25/18 A301 RMK A01 T02480177  RH  064%=      5-min Rain = 0
KBI1 150235Z 18003KT 25/18 A301 RMK A01 T02470176  RH  065%=      5-min Rain = 0
KBI1 150236Z 18004KT 25/18 A301 RMK A01 T02470177  RH  065%=      5-min Rain = 0
KBI1 150237Z 18004KT 25/18 A301 RMK A01 T02470177  RH  065%=      5-min Rain = 0
KBI1 150238Z 17004KT 25/18 A301 RMK A01 T02470177  RH  065%=      5-min Rain = 0
KBI1 150239Z 17003KT 25/18 A301 RMK A01 T02460177  RH  065%=      5-min Rain = 0
KBI1 150240Z 17003KT 25/18 A301 RMK A01 T02460177  RH  066%=      5-min Rain = 0
KBI1 150241Z 18003KT 25/18 A301 RMK A01 T02460177  RH  066%=      5-min Rain = 0
KBI1 150242Z 17003KT 25/18 A301 RMK A01 T02450178  RH  066%=      5-min Rain = 0
KBI1 150243Z 17003KT 25/18 A301 RMK A01 T02450178  RH  066%=      5-min Rain = 0
KBI1 150244Z 17003KT 25/18 A301 RMK A01 T02450179  RH  067%=      5-min Rain = 0
KBI1 150245Z 17003KT 25/18 A301 RMK A01 T02450179  RH  067%=      5-min Rain = 0
KBI1 150246Z 17003KT 24/18 A301 RMK A01 T02440179  RH  067%=      5-min Rain = 0
KBI1 150247Z 17003KT 25/18 A3011 RMK A01 T02450179  RH  067%=      5-min Rain = 0
KBI1 150248Z 17004KT 24/18 A3011 RMK A01 T02440179  RH  067%=      5-min Rain = 0
KBI1 150249Z 17003KT 24/18 A3011 RMK A01 T02440180  RH  067%=      5-min Rain = 0
KBI1 150250Z 17004KT 24/18 A3011 RMK A01 T02440180  RH  068%=      5-min Rain = 0
KBI1 150251Z 18004KT 24/18 A3011 RMK A01 T02430180  RH  068%=      5-min Rain = 0
KBI1 150252Z 18004KT 24/18 A3011 RMK A01 T02430180  RH  068%=      5-min Rain = 0
KBI1 150253Z 18004KT 24/18 A3011 RMK A01 T02430180  RH  068%=      5-min Rain = 0
KBI1 150254Z 17005KT 24/18 A3011 RMK A01 T02430180  RH  068%=      5-min Rain = 0
KBI1 150255Z 17005KT 24/18 A3011 RMK A01 T02430180  RH  068%=      5-min Rain = 0
KBI1 150256Z 17005KT 24/18 A3011 RMK A01 T02430181  RH  068%=      5-min Rain = 0
KBI1 150257Z 17005KT 24/18 A3011 RMK A01 T02430182  RH  069%=      5-min Rain = 0
KBI1 150258Z 17005KT 24/18 A3011 RMK A01 T02420182  RH  069%=      5-min Rain = 0
KBI1 150259Z 18005KT 24/18 A3011 RMK A01 T02420183  RH  069%=      5-min Rain = 0
KBI1 150300Z 18005KT 24/18 A3011 RMK A01 T02420183  RH  070%=      5-min Rain = 0
KBI1 150301Z 18005KT 24/18 A3011 RMK A01 T02410182  RH  070%=      5-min Rain = 0
KBI1 150302Z 18005KT 24/18 A3011 RMK A01 T02410182  RH  070%=      5-min Rain = 0
KBI1 150303Z 18005KT 24/18 A3011 RMK A01 T02400182  RH  070%=      5-min Rain = 0
KBI1 150304Z 17004KT 24/18 A3011 RMK A01 T02400182  RH  070%=      5-min Rain = 0
KBI1 150305Z 17004KT 24/18 A3011 RMK A01 T02400181  RH  070%=      5-min Rain = 0
KBI1 150306Z 16005KT 24/18 A3011 RMK A01 T02400181  RH  070%=      5-min Rain = 0
KBI1 150307Z 16004KT 24/18 A3011 RMK A01 T02400182  RH  070%=      5-min Rain = 0
KBI1 150308Z 17004KT 24/18 A3011 RMK A01 T02400182  RH  070%=      5-min Rain = 0
KBI1 150309Z 17005KT 24/18 A3011 RMK A01 T02400182  RH  070%=      5-min Rain = 0
KBI1 150310Z 17004KT 24/18 A3011 RMK A01 T02400182  RH  070%=      5-min Rain = 0
KBI1 150311Z 17005KT 24/18 A3011 RMK A01 T02400182  RH  070%=      5-min Rain = 0
KBI1 150312Z 17004KT 24/18 A3011 RMK A01 T02400183  RH  070%=      5-min Rain = 0
KBI1 150313Z 18004KT 24/18 A3012 RMK A01 T02400183  RH  071%=      5-min Rain = 0
KBI1 150314Z 17004KT 24/18 A3012 RMK A01 T02400184  RH  071%=      5-min Rain = 0
KBI1 150315Z 18005KT 24/18 A3012 RMK A01 T02390184  RH  071%=      5-min Rain = 0
KBI1 150316Z 18005KT 24/19 A3012 RMK A01 T02390185  RH  071%=      5-min Rain = 0
KBI1 150317Z 18005KT 24/18 A3012 RMK A01 T02390184  RH  072%=      5-min Rain = 0
KBI1 150318Z 17005KT 24/19 A3012 RMK A01 T02380185  RH  072%=      5-min Rain = 0
KBI1 150319Z 18004KT 24/19 A3012 RMK A01 T02380185  RH  072%=      5-min Rain = 0
KBI1 150320Z 18004KT 24/19 A3012 RMK A01 T02380185  RH  072%=      5-min Rain = 0
KBI1 150321Z 17004KT 24/19 A3012 RMK A01 T02380185  RH  072%=      5-min Rain = 0
KBI1 150322Z 17004KT 24/19 A3012 RMK A01 T02380185  RH  072%=      5-min Rain = 0
KBI1 150323Z 17005KT 24/19 A3012 RMK A01 T02380185  RH  072%=      5-min Rain = 0
KBI1 150324Z 17005KT 24/19 A3012 RMK A01 T02380185  RH  072%=      5-min Rain = 0
KBI1 150325Z 18004KT 24/18 A3012 RMK A01 T02370184  RH  072%=      5-min Rain = 0
KBI1 150326Z 18004KT 24/18 A3012 RMK A01 T02370184  RH  072%=      5-min Rain = 0
KBI1 150327Z 18005KT 24/18 A3012 RMK A01 T02370184  RH  072%=      5-min Rain = 0
KBI1 150328Z 18005KT 24/18 A3012 RMK A01 T02370183  RH  072%=      5-min Rain = 0
KBI1 150329Z 18005KT 24/18 A3012 RMK A01 T02370183  RH  072%=      5-min Rain = 0
KBI1 150330Z 18005KT 24/18 A3012 RMK A01 T02370183  RH  072%=      5-min Rain = 0
KBI1 150331Z 18005KT 24/18 A3012 RMK A01 T02360182  RH  072%=      5-min Rain = 0
KBI1 150332Z 18005KT 24/18 A3012 RMK A01 T02360182  RH  072%=      5-min Rain = 0
KBI1 150333Z 18006KT 24/18 A3012 RMK A01 T02360182  RH  072%=      5-min Rain = 0
KBI1 150334Z 17005KT 24/18 A3012 RMK A01 T02360182  RH  072%=      5-min Rain = 0
KBI1 150335Z 17006KT 24/18 A3012 RMK A01 T02360182  RH  072%=      5-min Rain = 0
KBI1 150336Z 17006KT 24/18 A3012 RMK A01 T02360182  RH  072%=      5-min Rain = 0
KBI1 150337Z 17005KT 24/18 A3012 RMK A01 T02360182  RH  072%=      5-min Rain = 0
KBI1 150338Z 17005KT 24/18 A3012 RMK A01 T02360182  RH  072%=      5-min Rain = 0
KBI1 150339Z 18005KT 24/18 A3012 RMK A01 T02360182  RH  072%=      5-min Rain = 0
KBI1 150340Z 18004KT 24/18 A3012 RMK A01 T02360182  RH  072%=      5-min Rain = 0
KBI1 150341Z 18004KT 24/18 A3012 RMK A01 T02360182  RH  072%=      5-min Rain = 0
KBI1 150342Z 18004KT 24/18 A3012 RMK A01 T02360183  RH  072%=      5-min Rain = 0
KBI1 150343Z 18005KT 24/18 A3012 RMK A01 T02360182  RH  072%=      5-min Rain = 0
KBI1 150344Z 18004KT 24/18 A3012 RMK A01 T02350182  RH  072%=      5-min Rain = 0
KBI1 150345Z 18004KT 24/18 A3012 RMK A01 T02350182  RH  072%=      5-min Rain = 0
KBI1 150346Z 18004KT 24/18 A3012 RMK A01 T02350182  RH  072%=      5-min Rain = 0
KBI1 150347Z 18004KT 24/18 A3012 RMK A01 T02350182  RH  072%=      5-min Rain = 0
KBI1 150348Z 18004KT 24/18 A3012 RMK A01 T02350182  RH  072%=      5-min Rain = 0
KBI1 150349Z 19004KT 24/18 A3012 RMK A01 T02350182  RH  072%=      5-min Rain = 0
KBI1 150350Z 19004KT 23/18 A3012 RMK A01 T02340182  RH  072%=      5-min Rain = 0
KBI1 150351Z 19003KT 23/18 A3012 RMK A01 T02340181  RH  072%=      5-min Rain = 0
KBI1 150352Z 20003KT 23/18 A3012 RMK A01 T02340181  RH  072%=      5-min Rain = 0
KBI1 150353Z 20003KT 23/18 A3012 RMK A01 T02340180  RH  072%=      5-min Rain = 0
KBI1 150354Z 21003KT 23/18 A3012 RMK A01 T02340180  RH  071%=      5-min Rain = 0
KBI1 150355Z 20003KT 23/18 A3012 RMK A01 T02340179  RH  071%=      5-min Rain = 0
KBI1 150356Z 20003KT 23/18 A3012 RMK A01 T02340179  RH  071%=      5-min Rain = 0
KBI1 150357Z 19003KT 23/18 A3012 RMK A01 T02340178  RH  071%=      5-min Rain = 0
KBI1 150358Z 19003KT 23/18 A3012 RMK A01 T02340178  RH  071%=      5-min Rain = 0
KBI1 150359Z 19003KT 23/18 A3012 RMK A01 T02340178  RH  071%=      5-min Rain = 0
KBI1 150400Z 19003KT 23/18 A3012 RMK A01 T02340178  RH  071%=      5-min Rain = 0
KBI1 150401Z 20004KT 23/18 A3012 RMK A01 T02340177  RH  070%=      5-min Rain = 0
KBI1 150402Z 20003KT 24/18 A3012 RMK A01 T02350176  RH  070%=      5-min Rain = 0
KBI1 150403Z 20003KT 24/18 A3012 RMK A01 T02350177  RH  070%=      5-min Rain = 0
KBI1 150404Z 20002KT 24/18 A3012 RMK A01 T02360177  RH  070%=      5-min Rain = 0
KBI1 150405Z 20002KT 24/18 A3012 RMK A01 T02360177  RH  070%=      5-min Rain = 0
KBI1 150406Z 21002KT 24/18 A3012 RMK A01 T02350177  RH  070%=      5-min Rain = 0
KBI1 150407Z 20002KT 24/18 A3012 RMK A01 T02350177  RH  069%=      5-min Rain = 0
KBI1 150408Z 21002KT 24/18 A3012 RMK A01 T02350176  RH  069%=      5-min Rain = 0
KBI1 150409Z 22003KT 24/18 A3012 RMK A01 T02350176  RH  069%=      5-min Rain = 0
KBI1 150410Z 21003KT 24/18 A3012 RMK A01 T02350175  RH  069%=      5-min Rain = 0
KBI1 150411Z 22003KT 24/18 A3012 RMK A01 T02350175  RH  069%=      5-min Rain = 0
KBI1 150412Z 22003KT 24/17 A3012 RMK A01 T02360174  RH  068%=      5-min Rain = 0
KBI1 150413Z 22003KT 24/17 A3012 RMK A01 T02360174  RH  068%=      5-min Rain = 0
KBI1 150414Z 22003KT 24/17 A3012 RMK A01 T02360174  RH  068%=      5-min Rain = 0
KBI1 150415Z 22003KT 24/17 A3012 RMK A01 T02360174  RH  068%=      5-min Rain = 0
KBI1 150416Z 22003KT 24/17 A3012 RMK A01 T02360174  RH  068%=      5-min Rain = 0
KBI1 150417Z 21003KT 24/17 A3013 RMK A01 T02360174  RH  068%=      5-min Rain = 0
KBI1 150418Z 20003KT 24/17 A3013 RMK A01 T02360173  RH  068%=      5-min Rain = 0
KBI1 150419Z 19003KT 24/17 A3013 RMK A01 T02360173  RH  068%=      5-min Rain = 0
KBI1 150420Z 18003KT 24/17 A3012 RMK A01 T02360173  RH  068%=      5-min Rain = 0
KBI1 150421Z 18004KT 24/17 A3012 RMK A01 T02360173  RH  068%=      5-min Rain = 0
KBI1 150422Z 17003KT 24/17 A3012 RMK A01 T02350173  RH  068%=      5-min Rain = 0
KBI1 150423Z 16003KT 24/17 A3012 RMK A01 T02350173  RH  068%=      5-min Rain = 0
KBI1 150424Z 17003KT 24/17 A3012 RMK A01 T02350173  RH  068%=      5-min Rain = 0
KBI1 150425Z 19004KT 24/17 A3012 RMK A01 T02350173  RH  068%=      5-min Rain = 0
KBI1 150426Z 20004KT 24/17 A3012 RMK A01 T02350173  RH  068%=      5-min Rain = 0
KBI1 150427Z 19004KT 24/17 A3012 RMK A01 T02350173  RH  068%=      5-min Rain = 0
KBI1 150428Z 19003KT 24/17 A3012 RMK A01 T02360173  RH  068%=      5-min Rain = 0
KBI1 150429Z 18003KT 24/17 A3012 RMK A01 T02350173  RH  068%=      5-min Rain = 0
KBI1 150430Z 19003KT 24/17 A3012 RMK A01 T02350173  RH  068%=      5-min Rain = 0
KBI1 150431Z 19003KT 24/17 A3012 RMK A01 T02350172  RH  068%=      5-min Rain = 0
KBI1 150432Z 20003KT 23/17 A3012 RMK A01 T02340173  RH  068%=      5-min Rain = 0
KBI1 150433Z 20002KT 23/17 A3012 RMK A01 T02340172  RH  068%=      5-min Rain = 0
KBI1 150434Z 21002KT 23/17 A3012 RMK A01 T02340172  RH  068%=      5-min Rain = 0
KBI1 150435Z 20002KT 23/17 A3012 RMK A01 T02330172  RH  068%=      5-min Rain = 0
KBI1 150436Z 21002KT 23/17 A3013 RMK A01 T02330172  RH  069%=      5-min Rain = 0
KBI1 150437Z 22002KT 23/17 A3013 RMK A01 T02330172  RH  069%=      5-min Rain = 0
KBI1 150438Z 22002KT 23/17 A3013 RMK A01 T02330172  RH  069%=      5-min Rain = 0
KBI1 150439Z 22002KT 23/17 A3012 RMK A01 T02330172  RH  069%=      5-min Rain = 0
KBI1 150440Z 22002KT 23/17 A3013 RMK A01 T02330172  RH  069%=      5-min Rain = 0
KBI1 150441Z 22002KT 23/17 A3013 RMK A01 T02330172  RH  069%=      5-min Rain = 0
KBI1 150442Z 22003KT 23/17 A3013 RMK A01 T02330172  RH  069%=      5-min Rain = 0
KBI1 150443Z 20003KT 23/17 A3012 RMK A01 T02330172  RH  069%=      5-min Rain = 0
KBI1 150444Z 20002KT 23/17 A3012 RMK A01 T02320171  RH  069%=      5-min Rain = 0
KBI1 150445Z 20003KT 23/17 A3012 RMK A01 T02330171  RH  068%=      5-min Rain = 0
KBI1 150446Z 20004KT 23/17 A3012 RMK A01 T02330172  RH  068%=      5-min Rain = 0
KBI1 150447Z 20004KT 23/17 A3012 RMK A01 T02340172  RH  068%=      5-min Rain = 0
KBI1 150448Z 20004KT 23/17 A3012 RMK A01 T02340172  RH  068%=      5-min Rain = 0
KBI1 150449Z 19004KT 23/17 A3012 RMK A01 T02330171  RH  068%=      5-min Rain = 0
KBI1 150450Z 19004KT 23/17 A3012 RMK A01 T02330172  RH  068%=      5-min Rain = 0
KBI1 150451Z 18004KT 23/17 A3012 RMK A01 T02320171  RH  069%=      5-min Rain = 0
KBI1 150452Z 19004KT 23/17 A3012 RMK A01 T02320172  RH  069%=      5-min Rain = 0
KBI1 150453Z 19003KT 23/17 A3012 RMK A01 T02330172  RH  069%=      5-min Rain = 0
KBI1 150454Z 19003KT 23/17 A3012 RMK A01 T02330172  RH  069%=      5-min Rain = 0
KBI1 150455Z 20002KT 23/17 A3012 RMK A01 T02330172  RH  068%=      5-min Rain = 0
KBI1 150456Z 20002KT 23/17 A3012 RMK A01 T02330172  RH  068%=      5-min Rain = 0
KBI1 150457Z 21001KT 23/17 A3013 RMK A01 T02330172  RH  069%=      5-min Rain = 0
KBI1 150458Z 20001KT 23/17 A3013 RMK A01 T02330172  RH  069%=      5-min Rain = 0
KBI1 150459Z 20001KT 23/17 A3013 RMK A01 T02320172  RH  069%=      5-min Rain = 0

Page generated in 0.1254 seconds.